<?xml version="1.0" encoding="UTF-8" standalone="no" ?>
<gpx xmlns="http://www.topografix.com/GPX/1/1" xmlns:xsi="http://www.w3.org/2001/XMLSchema-instance" xsi:schemaLocation="http://www.topografix.com/GPX/1/1 http://www.topografix.com/GPX/1/1/gpx.xsd" version="1.1" creator="VisuGPX - https://www.visugpx.com">
  <metadata>
    <name>north cuesta cassel / clair marais</name>
    <desc><![CDATA[[img]cassel/clair marais[/img]]]></desc>
  </metadata>
  <trk>
    <name><![CDATA[north cuesta cassel / clair marais_2]]></name>
    <extensions>
      <line xmlns="http://www.topografix.com/GPX/gpx_style/0/2">
        <color>00FF00</color>
        <width>4</width>
      </line>
    </extensions>
    <trkseg>
      <trkpt lat="50.80321" lon="2.49818">
        <ele>80.7</ele>
      </trkpt>
      <trkpt lat="50.80321" lon="2.49818">
        <ele>80.7</ele>
      </trkpt>
      <trkpt lat="50.80829" lon="2.48959">
        <ele>72</ele>
      </trkpt>
      <trkpt lat="50.80725" lon="2.48934">
        <ele>74.2</ele>
      </trkpt>
      <trkpt lat="50.80596" lon="2.48861">
        <ele>83</ele>
      </trkpt>
      <trkpt lat="50.80469" lon="2.48824">
        <ele>97.4</ele>
      </trkpt>
      <trkpt lat="50.8041" lon="2.48788">
        <ele>107.5</ele>
      </trkpt>
      <trkpt lat="50.80386" lon="2.4881">
        <ele>110.8</ele>
      </trkpt>
      <trkpt lat="50.80343" lon="2.4882">
        <ele>117.7</ele>
      </trkpt>
      <trkpt lat="50.80306" lon="2.48829">
        <ele>123.7</ele>
      </trkpt>
      <trkpt lat="50.80288" lon="2.48851">
        <ele>124.4</ele>
      </trkpt>
      <trkpt lat="50.8028" lon="2.48841">
        <ele>127.1</ele>
      </trkpt>
      <trkpt lat="50.80282" lon="2.48826">
        <ele>128.6</ele>
      </trkpt>
      <trkpt lat="50.80294" lon="2.48798">
        <ele>129.1</ele>
      </trkpt>
      <trkpt lat="50.80309" lon="2.4876">
        <ele>130</ele>
      </trkpt>
      <trkpt lat="50.80313" lon="2.48721">
        <ele>133.4</ele>
      </trkpt>
      <trkpt lat="50.80301" lon="2.48719">
        <ele>135.4</ele>
      </trkpt>
      <trkpt lat="50.80293" lon="2.48714">
        <ele>137.3</ele>
      </trkpt>
      <trkpt lat="50.80282" lon="2.48739">
        <ele>136.6</ele>
      </trkpt>
      <trkpt lat="50.80254" lon="2.48806">
        <ele>135.6</ele>
      </trkpt>
      <trkpt lat="50.80237" lon="2.48814">
        <ele>136.6</ele>
      </trkpt>
      <trkpt lat="50.80231" lon="2.48758">
        <ele>124.9</ele>
      </trkpt>
      <trkpt lat="50.80214" lon="2.48762">
        <ele>123.9</ele>
      </trkpt>
      <trkpt lat="50.80203" lon="2.48744">
        <ele>126.5</ele>
      </trkpt>
      <trkpt lat="50.80191" lon="2.4871">
        <ele>127.9</ele>
      </trkpt>
      <trkpt lat="50.80165" lon="2.48649">
        <ele>129.8</ele>
      </trkpt>
      <trkpt lat="50.80154" lon="2.48629">
        <ele>133.2</ele>
      </trkpt>
      <trkpt lat="50.80121" lon="2.48595">
        <ele>162.7</ele>
      </trkpt>
      <trkpt lat="50.80125" lon="2.48591">
        <ele>134</ele>
      </trkpt>
      <trkpt lat="50.80138" lon="2.48596">
        <ele>135.3</ele>
      </trkpt>
      <trkpt lat="50.80141" lon="2.4859">
        <ele>138.4</ele>
      </trkpt>
      <trkpt lat="50.80139" lon="2.48577">
        <ele>136.1</ele>
      </trkpt>
      <trkpt lat="50.80109" lon="2.48556">
        <ele>136.9</ele>
      </trkpt>
      <trkpt lat="50.80134" lon="2.4847">
        <ele>127.7</ele>
      </trkpt>
      <trkpt lat="50.80134" lon="2.48439">
        <ele>122.2</ele>
      </trkpt>
      <trkpt lat="50.80186" lon="2.48423">
        <ele>118.3</ele>
      </trkpt>
      <trkpt lat="50.80221" lon="2.48354">
        <ele>120.7</ele>
      </trkpt>
      <trkpt lat="50.80231" lon="2.48301">
        <ele>157.3</ele>
      </trkpt>
      <trkpt lat="50.80254" lon="2.48299">
        <ele>161.16</ele>
        <time>2021-06-13T14:49:21Z</time>
      </trkpt>
      <trkpt lat="50.80285" lon="2.48297">
        <ele>159.24</ele>
        <time>2021-06-13T14:49:00Z</time>
      </trkpt>
      <trkpt lat="50.80299" lon="2.48296">
        <ele>157.31</ele>
        <time>2021-06-13T14:48:50Z</time>
      </trkpt>
      <trkpt lat="50.80487" lon="2.4828">
        <ele>120.78</ele>
        <time>2021-06-13T14:38:58Z</time>
      </trkpt>
      <trkpt lat="50.80482" lon="2.48257">
        <ele>119.82</ele>
        <time>2021-06-13T14:38:52Z</time>
      </trkpt>
      <trkpt lat="50.8048" lon="2.48189">
        <ele>118.86</ele>
        <time>2021-06-13T14:38:38Z</time>
      </trkpt>
      <trkpt lat="50.80501" lon="2.4813">
        <ele>115.98</ele>
        <time>2021-06-13T14:38:24Z</time>
      </trkpt>
      <trkpt lat="50.80522" lon="2.48092">
        <ele>114.53</ele>
        <time>2021-06-13T14:38:12Z</time>
      </trkpt>
      <trkpt lat="50.8055" lon="2.48065">
        <ele>112.13</ele>
        <time>2021-06-13T14:38:01Z</time>
      </trkpt>
      <trkpt lat="50.80598" lon="2.48095">
        <ele>111.17</ele>
        <time>2021-06-13T14:37:45Z</time>
      </trkpt>
      <trkpt lat="50.80644" lon="2.48147">
        <ele>108.29</ele>
        <time>2021-06-13T14:37:29Z</time>
      </trkpt>
      <trkpt lat="50.80676" lon="2.48204">
        <ele>106.36</ele>
        <time>2021-06-13T14:37:15Z</time>
      </trkpt>
      <trkpt lat="50.80722" lon="2.4824">
        <ele>103.96</ele>
        <time>2021-06-13T14:37:00Z</time>
      </trkpt>
      <trkpt lat="50.80766" lon="2.4827">
        <ele>101.56</ele>
        <time>2021-06-13T14:36:45Z</time>
      </trkpt>
      <trkpt lat="50.80795" lon="2.4832">
        <ele>99.15</ele>
        <time>2021-06-13T14:36:32Z</time>
      </trkpt>
      <trkpt lat="50.80831" lon="2.48386">
        <ele>96.75</ele>
        <time>2021-06-13T14:36:16Z</time>
      </trkpt>
      <trkpt lat="50.80866" lon="2.48453">
        <ele>94.83</ele>
        <time>2021-06-13T14:35:59Z</time>
      </trkpt>
      <trkpt lat="50.80903" lon="2.48528">
        <ele>91.94</ele>
        <time>2021-06-13T14:35:41Z</time>
      </trkpt>
      <trkpt lat="50.80939" lon="2.48552">
        <ele>90.02</ele>
        <time>2021-06-13T14:35:28Z</time>
      </trkpt>
      <trkpt lat="50.80995" lon="2.48549">
        <ele>87.62</ele>
        <time>2021-06-13T14:35:11Z</time>
      </trkpt>
      <trkpt lat="50.81046" lon="2.48526">
        <ele>84.73</ele>
        <time>2021-06-13T14:34:55Z</time>
      </trkpt>
      <trkpt lat="50.81093" lon="2.485">
        <ele>82.81</ele>
        <time>2021-06-13T14:34:40Z</time>
      </trkpt>
      <trkpt lat="50.81111" lon="2.48487">
        <ele>81.37</ele>
        <time>2021-06-13T14:34:34Z</time>
      </trkpt>
      <trkpt lat="50.8117" lon="2.48429">
        <ele>78.48</ele>
        <time>2021-06-13T14:34:15Z</time>
      </trkpt>
      <trkpt lat="50.81237" lon="2.48361">
        <ele>75.6</ele>
        <time>2021-06-13T14:33:54Z</time>
      </trkpt>
      <trkpt lat="50.813" lon="2.48317">
        <ele>72.24</ele>
        <time>2021-06-13T14:33:36Z</time>
      </trkpt>
      <trkpt lat="50.81368" lon="2.48285">
        <ele>69.35</ele>
        <time>2021-06-13T14:33:17Z</time>
      </trkpt>
      <trkpt lat="50.81433" lon="2.48256">
        <ele>66.47</ele>
        <time>2021-06-13T14:32:58Z</time>
      </trkpt>
      <trkpt lat="50.81488" lon="2.48231">
        <ele>63.58</ele>
        <time>2021-06-13T14:32:42Z</time>
      </trkpt>
      <trkpt lat="50.81547" lon="2.48203">
        <ele>61.66</ele>
        <time>2021-06-13T14:32:25Z</time>
      </trkpt>
      <trkpt lat="50.81574" lon="2.48206">
        <ele>60.22</ele>
        <time>2021-06-13T14:32:15Z</time>
      </trkpt>
      <trkpt lat="50.81602" lon="2.48273">
        <ele>59.26</ele>
        <time>2021-06-13T14:32:01Z</time>
      </trkpt>
      <trkpt lat="50.81663" lon="2.48346">
        <ele>55.89</ele>
        <time>2021-06-13T14:31:42Z</time>
      </trkpt>
      <trkpt lat="50.8171" lon="2.48413">
        <ele>53.49</ele>
        <time>2021-06-13T14:31:25Z</time>
      </trkpt>
      <trkpt lat="50.81768" lon="2.48467">
        <ele>51.09</ele>
        <time>2021-06-13T14:31:07Z</time>
      </trkpt>
      <trkpt lat="50.81825" lon="2.48504">
        <ele>49.65</ele>
        <time>2021-06-13T14:30:51Z</time>
      </trkpt>
      <trkpt lat="50.81896" lon="2.48545">
        <ele>48.2</ele>
        <time>2021-06-13T14:30:32Z</time>
      </trkpt>
      <trkpt lat="50.81951" lon="2.48563">
        <ele>45.8</ele>
        <time>2021-06-13T14:30:17Z</time>
      </trkpt>
      <trkpt lat="50.82019" lon="2.4855">
        <ele>43.88</ele>
        <time>2021-06-13T14:30:02Z</time>
      </trkpt>
      <trkpt lat="50.82024" lon="2.48548">
        <ele>43.88</ele>
        <time>2021-06-13T14:30:01Z</time>
      </trkpt>
      <trkpt lat="50.82028" lon="2.48544">
        <ele>43.4</ele>
        <time>2021-06-13T14:30:00Z</time>
      </trkpt>
      <trkpt lat="50.82091" lon="2.4846">
        <ele>41.47</ele>
        <time>2021-06-13T14:29:44Z</time>
      </trkpt>
      <trkpt lat="50.82148" lon="2.48379">
        <ele>38.11</ele>
        <time>2021-06-13T14:29:30Z</time>
      </trkpt>
      <trkpt lat="50.82244" lon="2.48288">
        <ele>35.71</ele>
        <time>2021-06-13T14:29:12Z</time>
      </trkpt>
      <trkpt lat="50.82322" lon="2.48175">
        <ele>35.71</ele>
        <time>2021-06-13T14:28:56Z</time>
      </trkpt>
      <trkpt lat="50.82326" lon="2.48167">
        <ele>35.23</ele>
        <time>2021-06-13T14:28:55Z</time>
      </trkpt>
      <trkpt lat="50.82331" lon="2.48159">
        <ele>35.23</ele>
        <time>2021-06-13T14:28:54Z</time>
      </trkpt>
      <trkpt lat="50.82335" lon="2.48151">
        <ele>36.19</ele>
        <time>2021-06-13T14:28:53Z</time>
      </trkpt>
      <trkpt lat="50.82338" lon="2.48142">
        <ele>36.19</ele>
        <time>2021-06-13T14:28:52Z</time>
      </trkpt>
      <trkpt lat="50.82341" lon="2.48133">
        <ele>36.67</ele>
        <time>2021-06-13T14:28:51Z</time>
      </trkpt>
      <trkpt lat="50.82343" lon="2.48123">
        <ele>36.67</ele>
        <time>2021-06-13T14:28:50Z</time>
      </trkpt>
      <trkpt lat="50.82343" lon="2.48112">
        <ele>36.67</ele>
        <time>2021-06-13T14:28:49Z</time>
      </trkpt>
      <trkpt lat="50.82343" lon="2.48092">
        <ele>37.15</ele>
        <time>2021-06-13T14:28:47Z</time>
      </trkpt>
      <trkpt lat="50.82337" lon="2.48057">
        <ele>37.63</ele>
        <time>2021-06-13T14:28:43Z</time>
      </trkpt>
      <trkpt lat="50.82336" lon="2.48049">
        <ele>38.11</ele>
        <time>2021-06-13T14:28:42Z</time>
      </trkpt>
      <trkpt lat="50.82333" lon="2.48026">
        <ele>38.59</ele>
        <time>2021-06-13T14:28:36Z</time>
      </trkpt>
      <trkpt lat="50.82331" lon="2.47933">
        <ele>38.59</ele>
        <time>2021-06-13T14:28:13Z</time>
      </trkpt>
      <trkpt lat="50.82325" lon="2.47903">
        <ele>38.59</ele>
        <time>2021-06-13T14:28:10Z</time>
      </trkpt>
      <trkpt lat="50.82288" lon="2.47826">
        <ele>40.03</ele>
        <time>2021-06-13T14:28:01Z</time>
      </trkpt>
      <trkpt lat="50.82203" lon="2.47689">
        <ele>43.4</ele>
        <time>2021-06-13T14:27:44Z</time>
      </trkpt>
      <trkpt lat="50.82118" lon="2.47514">
        <ele>46.28</ele>
        <time>2021-06-13T14:27:24Z</time>
      </trkpt>
      <trkpt lat="50.82038" lon="2.47344">
        <ele>49.16</ele>
        <time>2021-06-13T14:27:05Z</time>
      </trkpt>
      <trkpt lat="50.81992" lon="2.47234">
        <ele>52.53</ele>
        <time>2021-06-13T14:26:53Z</time>
      </trkpt>
      <trkpt lat="50.8194" lon="2.471">
        <ele>53.97</ele>
        <time>2021-06-13T14:26:38Z</time>
      </trkpt>
      <trkpt lat="50.81913" lon="2.47004">
        <ele>57.34</ele>
        <time>2021-06-13T14:26:28Z</time>
      </trkpt>
      <trkpt lat="50.81887" lon="2.46895">
        <ele>60.7</ele>
        <time>2021-06-13T14:26:13Z</time>
      </trkpt>
      <trkpt lat="50.81872" lon="2.46836">
        <ele>61.18</ele>
        <time>2021-06-13T14:25:59Z</time>
      </trkpt>
      <trkpt lat="50.81869" lon="2.46817">
        <ele>61.18</ele>
        <time>2021-06-13T14:25:50Z</time>
      </trkpt>
      <trkpt lat="50.81886" lon="2.46797">
        <ele>61.18</ele>
        <time>2021-06-13T14:25:39Z</time>
      </trkpt>
      <trkpt lat="50.81889" lon="2.46791">
        <ele>62.62</ele>
        <time>2021-06-13T14:25:37Z</time>
      </trkpt>
      <trkpt lat="50.81898" lon="2.46771">
        <ele>61.18</ele>
        <time>2021-06-13T14:25:31Z</time>
      </trkpt>
      <trkpt lat="50.81919" lon="2.46726">
        <ele>57.82</ele>
        <time>2021-06-13T14:25:20Z</time>
      </trkpt>
      <trkpt lat="50.81951" lon="2.46657">
        <ele>54.45</ele>
        <time>2021-06-13T14:25:05Z</time>
      </trkpt>
      <trkpt lat="50.81995" lon="2.46564">
        <ele>51.09</ele>
        <time>2021-06-13T14:24:48Z</time>
      </trkpt>
      <trkpt lat="50.81997" lon="2.46559">
        <ele>50.61</ele>
        <time>2021-06-13T14:24:47Z</time>
      </trkpt>
      <trkpt lat="50.81999" lon="2.46551">
        <ele>50.61</ele>
        <time>2021-06-13T14:24:46Z</time>
      </trkpt>
      <trkpt lat="50.82001" lon="2.46522">
        <ele>50.13</ele>
        <time>2021-06-13T14:24:42Z</time>
      </trkpt>
      <trkpt lat="50.82007" lon="2.46409">
        <ele>47.24</ele>
        <time>2021-06-13T14:24:27Z</time>
      </trkpt>
      <trkpt lat="50.82008" lon="2.46402">
        <ele>47.24</ele>
        <time>2021-06-13T14:24:26Z</time>
      </trkpt>
      <trkpt lat="50.8201" lon="2.46395">
        <ele>47.24</ele>
        <time>2021-06-13T14:24:25Z</time>
      </trkpt>
      <trkpt lat="50.82053" lon="2.463">
        <ele>45.32</ele>
        <time>2021-06-13T14:24:11Z</time>
      </trkpt>
      <trkpt lat="50.8209" lon="2.46226">
        <ele>43.88</ele>
        <time>2021-06-13T14:24:01Z</time>
      </trkpt>
      <trkpt lat="50.82133" lon="2.46142">
        <ele>42.92</ele>
        <time>2021-06-13T14:23:51Z</time>
      </trkpt>
      <trkpt lat="50.82224" lon="2.45962">
        <ele>45.8</ele>
        <time>2021-06-13T14:23:29Z</time>
      </trkpt>
      <trkpt lat="50.82254" lon="2.45904">
        <ele>48.68</ele>
        <time>2021-06-13T14:23:21Z</time>
      </trkpt>
      <trkpt lat="50.8226" lon="2.45894">
        <ele>49.65</ele>
        <time>2021-06-13T14:23:19Z</time>
      </trkpt>
      <trkpt lat="50.82302" lon="2.45818">
        <ele>48.2</ele>
        <time>2021-06-13T14:23:02Z</time>
      </trkpt>
      <trkpt lat="50.82323" lon="2.45759">
        <ele>44.84</ele>
        <time>2021-06-13T14:22:48Z</time>
      </trkpt>
      <trkpt lat="50.82345" lon="2.45697">
        <ele>41.47</ele>
        <time>2021-06-13T14:22:35Z</time>
      </trkpt>
      <trkpt lat="50.82373" lon="2.45629">
        <ele>38.11</ele>
        <time>2021-06-13T14:22:22Z</time>
      </trkpt>
      <trkpt lat="50.82375" lon="2.45622">
        <ele>38.11</ele>
        <time>2021-06-13T14:22:21Z</time>
      </trkpt>
      <trkpt lat="50.82408" lon="2.45513">
        <ele>35.23</ele>
        <time>2021-06-13T14:22:06Z</time>
      </trkpt>
      <trkpt lat="50.82437" lon="2.4541">
        <ele>33.78</ele>
        <time>2021-06-13T14:21:54Z</time>
      </trkpt>
      <trkpt lat="50.8244" lon="2.45401">
        <ele>33.78</ele>
        <time>2021-06-13T14:21:53Z</time>
      </trkpt>
      <trkpt lat="50.82441" lon="2.45392">
        <ele>33.78</ele>
        <time>2021-06-13T14:21:52Z</time>
      </trkpt>
      <trkpt lat="50.82442" lon="2.45383">
        <ele>33.78</ele>
        <time>2021-06-13T14:21:51Z</time>
      </trkpt>
      <trkpt lat="50.82442" lon="2.45373">
        <ele>33.78</ele>
        <time>2021-06-13T14:21:50Z</time>
      </trkpt>
      <trkpt lat="50.82439" lon="2.45365">
        <ele>33.78</ele>
        <time>2021-06-13T14:21:49Z</time>
      </trkpt>
      <trkpt lat="50.8238" lon="2.45278">
        <ele>34.26</ele>
        <time>2021-06-13T14:21:37Z</time>
      </trkpt>
      <trkpt lat="50.82321" lon="2.45189">
        <ele>37.15</ele>
        <time>2021-06-13T14:21:25Z</time>
      </trkpt>
      <trkpt lat="50.82276" lon="2.45101">
        <ele>40.03</ele>
        <time>2021-06-13T14:21:14Z</time>
      </trkpt>
      <trkpt lat="50.82272" lon="2.45094">
        <ele>40.51</ele>
        <time>2021-06-13T14:21:13Z</time>
      </trkpt>
      <trkpt lat="50.82268" lon="2.45086">
        <ele>41.47</ele>
        <time>2021-06-13T14:21:12Z</time>
      </trkpt>
      <trkpt lat="50.82265" lon="2.45078">
        <ele>41.47</ele>
        <time>2021-06-13T14:21:11Z</time>
      </trkpt>
      <trkpt lat="50.82263" lon="2.45071">
        <ele>41.47</ele>
        <time>2021-06-13T14:21:10Z</time>
      </trkpt>
      <trkpt lat="50.82262" lon="2.45063">
        <ele>42.92</ele>
        <time>2021-06-13T14:21:09Z</time>
      </trkpt>
      <trkpt lat="50.82262" lon="2.45057">
        <ele>42.92</ele>
        <time>2021-06-13T14:21:08Z</time>
      </trkpt>
      <trkpt lat="50.82264" lon="2.45049">
        <ele>42.92</ele>
        <time>2021-06-13T14:21:07Z</time>
      </trkpt>
      <trkpt lat="50.82267" lon="2.45044">
        <ele>42.44</ele>
        <time>2021-06-13T14:21:06Z</time>
      </trkpt>
      <trkpt lat="50.82302" lon="2.45018">
        <ele>41.95</ele>
        <time>2021-06-13T14:20:58Z</time>
      </trkpt>
      <trkpt lat="50.82368" lon="2.44977">
        <ele>40.51</ele>
        <time>2021-06-13T14:20:42Z</time>
      </trkpt>
      <trkpt lat="50.82399" lon="2.4496">
        <ele>39.07</ele>
        <time>2021-06-13T14:20:29Z</time>
      </trkpt>
      <trkpt lat="50.82401" lon="2.44959">
        <ele>39.07</ele>
        <time>2021-06-13T14:20:28Z</time>
      </trkpt>
      <trkpt lat="50.82405" lon="2.44958">
        <ele>39.07</ele>
        <time>2021-06-13T14:20:27Z</time>
      </trkpt>
      <trkpt lat="50.82408" lon="2.44956">
        <ele>39.07</ele>
        <time>2021-06-13T14:20:26Z</time>
      </trkpt>
      <trkpt lat="50.8241" lon="2.44953">
        <ele>39.07</ele>
        <time>2021-06-13T14:20:25Z</time>
      </trkpt>
      <trkpt lat="50.82412" lon="2.44949">
        <ele>39.07</ele>
        <time>2021-06-13T14:20:24Z</time>
      </trkpt>
      <trkpt lat="50.82412" lon="2.44944">
        <ele>39.07</ele>
        <time>2021-06-13T14:20:23Z</time>
      </trkpt>
      <trkpt lat="50.82411" lon="2.44939">
        <ele>39.07</ele>
        <time>2021-06-13T14:20:22Z</time>
      </trkpt>
      <trkpt lat="50.82409" lon="2.44933">
        <ele>39.07</ele>
        <time>2021-06-13T14:20:21Z</time>
      </trkpt>
      <trkpt lat="50.82376" lon="2.44866">
        <ele>40.99</ele>
        <time>2021-06-13T14:20:13Z</time>
      </trkpt>
      <trkpt lat="50.82318" lon="2.44749">
        <ele>44.36</ele>
        <time>2021-06-13T14:19:59Z</time>
      </trkpt>
      <trkpt lat="50.82314" lon="2.44742">
        <ele>44.36</ele>
        <time>2021-06-13T14:19:58Z</time>
      </trkpt>
      <trkpt lat="50.82311" lon="2.44737">
        <ele>44.36</ele>
        <time>2021-06-13T14:19:57Z</time>
      </trkpt>
      <trkpt lat="50.82274" lon="2.44701">
        <ele>44.84</ele>
        <time>2021-06-13T14:19:50Z</time>
      </trkpt>
      <trkpt lat="50.82192" lon="2.44622">
        <ele>47.24</ele>
        <time>2021-06-13T14:19:36Z</time>
      </trkpt>
      <trkpt lat="50.82127" lon="2.44559">
        <ele>49.16</ele>
        <time>2021-06-13T14:19:25Z</time>
      </trkpt>
      <trkpt lat="50.8212" lon="2.44553">
        <ele>49.16</ele>
        <time>2021-06-13T14:19:24Z</time>
      </trkpt>
      <trkpt lat="50.82007" lon="2.44444">
        <ele>53.01</ele>
        <time>2021-06-13T14:19:06Z</time>
      </trkpt>
      <trkpt lat="50.82001" lon="2.44438">
        <ele>53.01</ele>
        <time>2021-06-13T14:19:05Z</time>
      </trkpt>
      <trkpt lat="50.81944" lon="2.44377">
        <ele>56.37</ele>
        <time>2021-06-13T14:18:55Z</time>
      </trkpt>
      <trkpt lat="50.81896" lon="2.44312">
        <ele>58.78</ele>
        <time>2021-06-13T14:18:46Z</time>
      </trkpt>
      <trkpt lat="50.81891" lon="2.44306">
        <ele>59.26</ele>
        <time>2021-06-13T14:18:45Z</time>
      </trkpt>
      <trkpt lat="50.81886" lon="2.44301">
        <ele>59.74</ele>
        <time>2021-06-13T14:18:44Z</time>
      </trkpt>
      <trkpt lat="50.81846" lon="2.44302">
        <ele>60.22</ele>
        <time>2021-06-13T14:18:38Z</time>
      </trkpt>
      <trkpt lat="50.81839" lon="2.44302">
        <ele>60.22</ele>
        <time>2021-06-13T14:18:37Z</time>
      </trkpt>
      <trkpt lat="50.81833" lon="2.443">
        <ele>60.22</ele>
        <time>2021-06-13T14:18:36Z</time>
      </trkpt>
      <trkpt lat="50.81826" lon="2.44297">
        <ele>60.22</ele>
        <time>2021-06-13T14:18:35Z</time>
      </trkpt>
      <trkpt lat="50.81819" lon="2.44293">
        <ele>60.22</ele>
        <time>2021-06-13T14:18:34Z</time>
      </trkpt>
      <trkpt lat="50.81813" lon="2.44288">
        <ele>60.7</ele>
        <time>2021-06-13T14:18:33Z</time>
      </trkpt>
      <trkpt lat="50.81789" lon="2.44252">
        <ele>60.7</ele>
        <time>2021-06-13T14:18:28Z</time>
      </trkpt>
      <trkpt lat="50.81724" lon="2.44151">
        <ele>64.07</ele>
        <time>2021-06-13T14:18:14Z</time>
      </trkpt>
      <trkpt lat="50.81678" lon="2.4408">
        <ele>66.95</ele>
        <time>2021-06-13T14:18:03Z</time>
      </trkpt>
      <trkpt lat="50.81674" lon="2.44075">
        <ele>66.95</ele>
        <time>2021-06-13T14:18:02Z</time>
      </trkpt>
      <trkpt lat="50.81671" lon="2.4407">
        <ele>66.95</ele>
        <time>2021-06-13T14:18:01Z</time>
      </trkpt>
      <trkpt lat="50.81669" lon="2.44065">
        <ele>66.95</ele>
        <time>2021-06-13T14:18:00Z</time>
      </trkpt>
      <trkpt lat="50.81668" lon="2.44058">
        <ele>66.95</ele>
        <time>2021-06-13T14:17:59Z</time>
      </trkpt>
      <trkpt lat="50.8167" lon="2.44052">
        <ele>66.95</ele>
        <time>2021-06-13T14:17:58Z</time>
      </trkpt>
      <trkpt lat="50.81716" lon="2.43982">
        <ele>66.95</ele>
        <time>2021-06-13T14:17:46Z</time>
      </trkpt>
      <trkpt lat="50.81778" lon="2.43891">
        <ele>65.99</ele>
        <time>2021-06-13T14:17:28Z</time>
      </trkpt>
      <trkpt lat="50.81826" lon="2.43821">
        <ele>65.03</ele>
        <time>2021-06-13T14:17:11Z</time>
      </trkpt>
      <trkpt lat="50.81828" lon="2.43818">
        <ele>64.55</ele>
        <time>2021-06-13T14:17:10Z</time>
      </trkpt>
      <trkpt lat="50.8183" lon="2.43815">
        <ele>64.55</ele>
        <time>2021-06-13T14:17:09Z</time>
      </trkpt>
      <trkpt lat="50.81832" lon="2.43812">
        <ele>64.55</ele>
        <time>2021-06-13T14:17:08Z</time>
      </trkpt>
      <trkpt lat="50.81834" lon="2.43808">
        <ele>64.55</ele>
        <time>2021-06-13T14:17:07Z</time>
      </trkpt>
      <trkpt lat="50.81834" lon="2.43805">
        <ele>64.55</ele>
        <time>2021-06-13T14:17:06Z</time>
      </trkpt>
      <trkpt lat="50.81834" lon="2.43801">
        <ele>64.55</ele>
        <time>2021-06-13T14:17:05Z</time>
      </trkpt>
      <trkpt lat="50.81833" lon="2.43796">
        <ele>64.55</ele>
        <time>2021-06-13T14:17:04Z</time>
      </trkpt>
      <trkpt lat="50.81832" lon="2.43793">
        <ele>64.55</ele>
        <time>2021-06-13T14:17:03Z</time>
      </trkpt>
      <trkpt lat="50.81755" lon="2.43783">
        <ele>65.99</ele>
        <time>2021-06-13T14:16:47Z</time>
      </trkpt>
      <trkpt lat="50.81672" lon="2.43759">
        <ele>65.03</ele>
        <time>2021-06-13T14:16:29Z</time>
      </trkpt>
      <trkpt lat="50.81654" lon="2.43752">
        <ele>64.07</ele>
        <time>2021-06-13T14:16:25Z</time>
      </trkpt>
      <trkpt lat="50.81622" lon="2.43742">
        <ele>65.51</ele>
        <time>2021-06-13T14:16:18Z</time>
      </trkpt>
      <trkpt lat="50.81553" lon="2.43739">
        <ele>65.03</ele>
        <time>2021-06-13T14:16:02Z</time>
      </trkpt>
      <trkpt lat="50.81516" lon="2.43738">
        <ele>63.58</ele>
        <time>2021-06-13T14:15:53Z</time>
      </trkpt>
      <trkpt lat="50.8144" lon="2.43708">
        <ele>62.14</ele>
        <time>2021-06-13T14:15:35Z</time>
      </trkpt>
      <trkpt lat="50.81364" lon="2.43672">
        <ele>60.22</ele>
        <time>2021-06-13T14:15:16Z</time>
      </trkpt>
      <trkpt lat="50.81294" lon="2.43642">
        <ele>59.26</ele>
        <time>2021-06-13T14:14:57Z</time>
      </trkpt>
      <trkpt lat="50.81212" lon="2.4358">
        <ele>56.86</ele>
        <time>2021-06-13T14:14:36Z</time>
      </trkpt>
      <trkpt lat="50.81144" lon="2.43539">
        <ele>54.45</ele>
        <time>2021-06-13T14:14:19Z</time>
      </trkpt>
      <trkpt lat="50.8114" lon="2.43538">
        <ele>54.45</ele>
        <time>2021-06-13T14:14:18Z</time>
      </trkpt>
      <trkpt lat="50.81136" lon="2.43538">
        <ele>54.45</ele>
        <time>2021-06-13T14:14:17Z</time>
      </trkpt>
      <trkpt lat="50.81123" lon="2.43541">
        <ele>53.97</ele>
        <time>2021-06-13T14:14:14Z</time>
      </trkpt>
      <trkpt lat="50.81068" lon="2.43578">
        <ele>51.09</ele>
        <time>2021-06-13T14:14:00Z</time>
      </trkpt>
      <trkpt lat="50.81064" lon="2.4358">
        <ele>51.09</ele>
        <time>2021-06-13T14:13:59Z</time>
      </trkpt>
      <trkpt lat="50.81059" lon="2.43581">
        <ele>50.61</ele>
        <time>2021-06-13T14:13:58Z</time>
      </trkpt>
      <trkpt lat="50.80985" lon="2.43573">
        <ele>48.68</ele>
        <time>2021-06-13T14:13:40Z</time>
      </trkpt>
      <trkpt lat="50.80928" lon="2.43554">
        <ele>47.24</ele>
        <time>2021-06-13T14:13:24Z</time>
      </trkpt>
      <trkpt lat="50.80911" lon="2.43545">
        <ele>38.9</ele>
      </trkpt>
      <trkpt lat="50.80914" lon="2.43519">
        <ele>45.8</ele>
        <time>2021-06-13T14:13:16Z</time>
      </trkpt>
      <trkpt lat="50.80927" lon="2.43386">
        <ele>47.72</ele>
        <time>2021-06-13T14:13:02Z</time>
      </trkpt>
      <trkpt lat="50.8096" lon="2.43267">
        <ele>51.09</ele>
        <time>2021-06-13T14:12:50Z</time>
      </trkpt>
      <trkpt lat="50.80963" lon="2.43258">
        <ele>51.57</ele>
        <time>2021-06-13T14:12:49Z</time>
      </trkpt>
      <trkpt lat="50.80965" lon="2.43237">
        <ele>52.05</ele>
        <time>2021-06-13T14:12:47Z</time>
      </trkpt>
      <trkpt lat="50.80968" lon="2.43208">
        <ele>53.49</ele>
        <time>2021-06-13T14:12:44Z</time>
      </trkpt>
      <trkpt lat="50.8098" lon="2.43042">
        <ele>53.49</ele>
        <time>2021-06-13T14:12:26Z</time>
      </trkpt>
      <trkpt lat="50.80981" lon="2.43034">
        <ele>53.49</ele>
        <time>2021-06-13T14:12:25Z</time>
      </trkpt>
      <trkpt lat="50.80983" lon="2.43025">
        <ele>53.49</ele>
        <time>2021-06-13T14:12:24Z</time>
      </trkpt>
      <trkpt lat="50.81006" lon="2.42951">
        <ele>52.05</ele>
        <time>2021-06-13T14:12:15Z</time>
      </trkpt>
      <trkpt lat="50.81032" lon="2.42813">
        <ele>52.53</ele>
        <time>2021-06-13T14:12:01Z</time>
      </trkpt>
      <trkpt lat="50.81033" lon="2.42802">
        <ele>52.53</ele>
        <time>2021-06-13T14:12:00Z</time>
      </trkpt>
      <trkpt lat="50.81044" lon="2.42648">
        <ele>56.37</ele>
        <time>2021-06-13T14:11:45Z</time>
      </trkpt>
      <trkpt lat="50.81053" lon="2.4253">
        <ele>59.74</ele>
        <time>2021-06-13T14:11:33Z</time>
      </trkpt>
      <trkpt lat="50.81052" lon="2.42501">
        <ele>60.7</ele>
        <time>2021-06-13T14:11:30Z</time>
      </trkpt>
      <trkpt lat="50.81052" lon="2.42492">
        <ele>61.66</ele>
        <time>2021-06-13T14:11:29Z</time>
      </trkpt>
      <trkpt lat="50.81053" lon="2.42484">
        <ele>61.66</ele>
        <time>2021-06-13T14:11:28Z</time>
      </trkpt>
      <trkpt lat="50.81062" lon="2.42416">
        <ele>63.1</ele>
        <time>2021-06-13T14:11:19Z</time>
      </trkpt>
      <trkpt lat="50.81083" lon="2.4232">
        <ele>62.14</ele>
        <time>2021-06-13T14:11:03Z</time>
      </trkpt>
      <trkpt lat="50.81101" lon="2.4222">
        <ele>60.22</ele>
        <time>2021-06-13T14:10:44Z</time>
      </trkpt>
      <trkpt lat="50.81102" lon="2.42215">
        <ele>60.22</ele>
        <time>2021-06-13T14:10:43Z</time>
      </trkpt>
      <trkpt lat="50.81103" lon="2.4221">
        <ele>60.22</ele>
        <time>2021-06-13T14:10:42Z</time>
      </trkpt>
      <trkpt lat="50.81105" lon="2.42205">
        <ele>60.22</ele>
        <time>2021-06-13T14:10:41Z</time>
      </trkpt>
      <trkpt lat="50.81107" lon="2.42202">
        <ele>60.22</ele>
        <time>2021-06-13T14:10:40Z</time>
      </trkpt>
      <trkpt lat="50.81109" lon="2.42199">
        <ele>60.22</ele>
        <time>2021-06-13T14:10:39Z</time>
      </trkpt>
      <trkpt lat="50.81153" lon="2.42219">
        <ele>58.78</ele>
        <time>2021-06-13T14:10:24Z</time>
      </trkpt>
      <trkpt lat="50.81155" lon="2.42219">
        <ele>58.78</ele>
        <time>2021-06-13T14:10:23Z</time>
      </trkpt>
      <trkpt lat="50.81164" lon="2.42172">
        <ele>56.37</ele>
        <time>2021-06-13T14:10:11Z</time>
      </trkpt>
      <trkpt lat="50.81176" lon="2.42085">
        <ele>53.97</ele>
        <time>2021-06-13T14:09:52Z</time>
      </trkpt>
      <trkpt lat="50.81186" lon="2.4202">
        <ele>52.53</ele>
        <time>2021-06-13T14:09:36Z</time>
      </trkpt>
      <trkpt lat="50.81195" lon="2.41962">
        <ele>50.13</ele>
        <time>2021-06-13T14:09:21Z</time>
      </trkpt>
      <trkpt lat="50.81202" lon="2.4192">
        <ele>47.24</ele>
        <time>2021-06-13T14:09:09Z</time>
      </trkpt>
      <trkpt lat="50.81208" lon="2.41892">
        <ele>43.88</ele>
        <time>2021-06-13T14:09:03Z</time>
      </trkpt>
      <trkpt lat="50.81231" lon="2.4179">
        <ele>41.95</ele>
        <time>2021-06-13T14:08:50Z</time>
      </trkpt>
      <trkpt lat="50.81232" lon="2.41781">
        <ele>41.95</ele>
        <time>2021-06-13T14:08:49Z</time>
      </trkpt>
      <trkpt lat="50.81255" lon="2.41637">
        <ele>43.88</ele>
        <time>2021-06-13T14:08:34Z</time>
      </trkpt>
      <trkpt lat="50.81256" lon="2.41628">
        <ele>44.36</ele>
        <time>2021-06-13T14:08:33Z</time>
      </trkpt>
      <trkpt lat="50.81262" lon="2.41601">
        <ele>45.32</ele>
        <time>2021-06-13T14:08:30Z</time>
      </trkpt>
      <trkpt lat="50.81299" lon="2.41485">
        <ele>45.8</ele>
        <time>2021-06-13T14:08:15Z</time>
      </trkpt>
      <trkpt lat="50.81323" lon="2.41377">
        <ele>47.72</ele>
        <time>2021-06-13T14:08:00Z</time>
      </trkpt>
      <trkpt lat="50.81326" lon="2.41357">
        <ele>45.8</ele>
        <time>2021-06-13T14:07:57Z</time>
      </trkpt>
      <trkpt lat="50.81327" lon="2.4135">
        <ele>45.8</ele>
        <time>2021-06-13T14:07:56Z</time>
      </trkpt>
      <trkpt lat="50.81329" lon="2.41344">
        <ele>45.8</ele>
        <time>2021-06-13T14:07:55Z</time>
      </trkpt>
      <trkpt lat="50.81369" lon="2.41238">
        <ele>43.4</ele>
        <time>2021-06-13T14:07:38Z</time>
      </trkpt>
      <trkpt lat="50.81397" lon="2.41134">
        <ele>43.88</ele>
        <time>2021-06-13T14:07:22Z</time>
      </trkpt>
      <trkpt lat="50.81403" lon="2.41006">
        <ele>42.92</ele>
        <time>2021-06-13T14:07:02Z</time>
      </trkpt>
      <trkpt lat="50.81398" lon="2.40906">
        <ele>40.99</ele>
        <time>2021-06-13T14:06:45Z</time>
      </trkpt>
      <trkpt lat="50.81398" lon="2.40901">
        <ele>40.99</ele>
        <time>2021-06-13T14:06:44Z</time>
      </trkpt>
      <trkpt lat="50.81412" lon="2.40873">
        <ele>39.55</ele>
        <time>2021-06-13T14:06:37Z</time>
      </trkpt>
      <trkpt lat="50.81452" lon="2.40811">
        <ele>38.11</ele>
        <time>2021-06-13T14:06:22Z</time>
      </trkpt>
      <trkpt lat="50.81494" lon="2.40716">
        <ele>34.74</ele>
        <time>2021-06-13T14:06:03Z</time>
      </trkpt>
      <trkpt lat="50.81547" lon="2.40601">
        <ele>33.78</ele>
        <time>2021-06-13T14:05:40Z</time>
      </trkpt>
      <trkpt lat="50.81578" lon="2.40531">
        <ele>32.34</ele>
        <time>2021-06-13T14:05:25Z</time>
      </trkpt>
      <trkpt lat="50.81608" lon="2.40455">
        <ele>31.38</ele>
        <time>2021-06-13T14:05:08Z</time>
      </trkpt>
      <trkpt lat="50.8163" lon="2.40368">
        <ele>29.46</ele>
        <time>2021-06-13T13:59:37Z</time>
      </trkpt>
      <trkpt lat="50.81634" lon="2.4034">
        <ele>24.6</ele>
      </trkpt>
      <trkpt lat="50.81674" lon="2.40225">
        <ele>26.09</ele>
        <time>2021-06-13T13:56:44Z</time>
      </trkpt>
      <trkpt lat="50.81704" lon="2.40129">
        <ele>26.57</ele>
        <time>2021-06-13T13:56:31Z</time>
      </trkpt>
      <trkpt lat="50.81705" lon="2.40123">
        <ele>26.57</ele>
        <time>2021-06-13T13:56:30Z</time>
      </trkpt>
      <trkpt lat="50.81706" lon="2.40118">
        <ele>28.02</ele>
        <time>2021-06-13T13:56:29Z</time>
      </trkpt>
      <trkpt lat="50.81706" lon="2.40113">
        <ele>28.02</ele>
        <time>2021-06-13T13:56:28Z</time>
      </trkpt>
      <trkpt lat="50.81705" lon="2.40106">
        <ele>26.09</ele>
        <time>2021-06-13T13:56:26Z</time>
      </trkpt>
      <trkpt lat="50.81662" lon="2.40059">
        <ele>26.57</ele>
        <time>2021-06-13T13:56:16Z</time>
      </trkpt>
      <trkpt lat="50.81618" lon="2.39967">
        <ele>28.5</ele>
        <time>2021-06-13T13:56:05Z</time>
      </trkpt>
      <trkpt lat="50.81598" lon="2.39941">
        <ele>28.5</ele>
        <time>2021-06-13T13:56:01Z</time>
      </trkpt>
      <trkpt lat="50.81576" lon="2.39891">
        <ele>28.5</ele>
        <time>2021-06-13T13:55:55Z</time>
      </trkpt>
      <trkpt lat="50.8155" lon="2.39802">
        <ele>29.94</ele>
        <time>2021-06-13T13:55:45Z</time>
      </trkpt>
      <trkpt lat="50.81525" lon="2.39717">
        <ele>28.5</ele>
        <time>2021-06-13T13:55:35Z</time>
      </trkpt>
      <trkpt lat="50.81503" lon="2.3966">
        <ele>29.94</ele>
        <time>2021-06-13T13:55:28Z</time>
      </trkpt>
      <trkpt lat="50.81487" lon="2.39611">
        <ele>28.5</ele>
        <time>2021-06-13T13:55:22Z</time>
      </trkpt>
      <trkpt lat="50.81478" lon="2.39516">
        <ele>29.94</ele>
        <time>2021-06-13T13:55:11Z</time>
      </trkpt>
      <trkpt lat="50.8147" lon="2.39464">
        <ele>31.38</ele>
        <time>2021-06-13T13:55:02Z</time>
      </trkpt>
      <trkpt lat="50.81472" lon="2.3941">
        <ele>29.94</ele>
        <time>2021-06-13T13:54:54Z</time>
      </trkpt>
      <trkpt lat="50.81473" lon="2.394">
        <ele>29.94</ele>
        <time>2021-06-13T13:54:53Z</time>
      </trkpt>
      <trkpt lat="50.81474" lon="2.39391">
        <ele>30.42</ele>
        <time>2021-06-13T13:54:52Z</time>
      </trkpt>
      <trkpt lat="50.81476" lon="2.39382">
        <ele>30.42</ele>
        <time>2021-06-13T13:54:51Z</time>
      </trkpt>
      <trkpt lat="50.81479" lon="2.39373">
        <ele>30.42</ele>
        <time>2021-06-13T13:54:50Z</time>
      </trkpt>
      <trkpt lat="50.81482" lon="2.39365">
        <ele>30.9</ele>
        <time>2021-06-13T13:54:49Z</time>
      </trkpt>
      <trkpt lat="50.81486" lon="2.39359">
        <ele>30.9</ele>
        <time>2021-06-13T13:54:48Z</time>
      </trkpt>
      <trkpt lat="50.81528" lon="2.39308">
        <ele>32.34</ele>
        <time>2021-06-13T13:54:38Z</time>
      </trkpt>
      <trkpt lat="50.81531" lon="2.39302">
        <ele>32.82</ele>
        <time>2021-06-13T13:54:37Z</time>
      </trkpt>
      <trkpt lat="50.81574" lon="2.39207">
        <ele>32.82</ele>
        <time>2021-06-13T13:54:21Z</time>
      </trkpt>
      <trkpt lat="50.81634" lon="2.39096">
        <ele>33.3</ele>
        <time>2021-06-13T13:54:05Z</time>
      </trkpt>
      <trkpt lat="50.81711" lon="2.38997">
        <ele>35.23</ele>
        <time>2021-06-13T13:53:48Z</time>
      </trkpt>
      <trkpt lat="50.81714" lon="2.38992">
        <ele>35.23</ele>
        <time>2021-06-13T13:53:47Z</time>
      </trkpt>
      <trkpt lat="50.81718" lon="2.38988">
        <ele>35.23</ele>
        <time>2021-06-13T13:53:46Z</time>
      </trkpt>
      <trkpt lat="50.81722" lon="2.38984">
        <ele>35.23</ele>
        <time>2021-06-13T13:53:45Z</time>
      </trkpt>
      <trkpt lat="50.81724" lon="2.38979">
        <ele>35.23</ele>
        <time>2021-06-13T13:53:44Z</time>
      </trkpt>
      <trkpt lat="50.81726" lon="2.38973">
        <ele>35.23</ele>
        <time>2021-06-13T13:53:43Z</time>
      </trkpt>
      <trkpt lat="50.81727" lon="2.38967">
        <ele>35.23</ele>
        <time>2021-06-13T13:53:42Z</time>
      </trkpt>
      <trkpt lat="50.81726" lon="2.38961">
        <ele>35.23</ele>
        <time>2021-06-13T13:53:41Z</time>
      </trkpt>
      <trkpt lat="50.81714" lon="2.38917">
        <ele>35.71</ele>
        <time>2021-06-13T13:53:34Z</time>
      </trkpt>
      <trkpt lat="50.81697" lon="2.38851">
        <ele>36.67</ele>
        <time>2021-06-13T13:53:25Z</time>
      </trkpt>
      <trkpt lat="50.81696" lon="2.38843">
        <ele>36.67</ele>
        <time>2021-06-13T13:53:24Z</time>
      </trkpt>
      <trkpt lat="50.81689" lon="2.38807">
        <ele>37.63</ele>
        <time>2021-06-13T13:53:19Z</time>
      </trkpt>
      <trkpt lat="50.81688" lon="2.38801">
        <ele>37.63</ele>
        <time>2021-06-13T13:53:18Z</time>
      </trkpt>
      <trkpt lat="50.81688" lon="2.38794">
        <ele>38.11</ele>
        <time>2021-06-13T13:53:17Z</time>
      </trkpt>
      <trkpt lat="50.81689" lon="2.38752">
        <ele>39.07</ele>
        <time>2021-06-13T13:53:11Z</time>
      </trkpt>
      <trkpt lat="50.81688" lon="2.38716">
        <ele>38.59</ele>
        <time>2021-06-13T13:53:05Z</time>
      </trkpt>
      <trkpt lat="50.81673" lon="2.38651">
        <ele>39.07</ele>
        <time>2021-06-13T13:52:52Z</time>
      </trkpt>
      <trkpt lat="50.81658" lon="2.38518">
        <ele>39.55</ele>
        <time>2021-06-13T13:52:34Z</time>
      </trkpt>
      <trkpt lat="50.81659" lon="2.38503">
        <ele>39.55</ele>
        <time>2021-06-13T13:52:32Z</time>
      </trkpt>
      <trkpt lat="50.81659" lon="2.38495">
        <ele>39.55</ele>
        <time>2021-06-13T13:52:31Z</time>
      </trkpt>
      <trkpt lat="50.8166" lon="2.38486">
        <ele>40.51</ele>
        <time>2021-06-13T13:52:30Z</time>
      </trkpt>
      <trkpt lat="50.81661" lon="2.38478">
        <ele>40.51</ele>
        <time>2021-06-13T13:52:29Z</time>
      </trkpt>
      <trkpt lat="50.81663" lon="2.38472">
        <ele>40.51</ele>
        <time>2021-06-13T13:52:28Z</time>
      </trkpt>
      <trkpt lat="50.81666" lon="2.38466">
        <ele>40.51</ele>
        <time>2021-06-13T13:52:27Z</time>
      </trkpt>
      <trkpt lat="50.8167" lon="2.38462">
        <ele>40.51</ele>
        <time>2021-06-13T13:52:26Z</time>
      </trkpt>
      <trkpt lat="50.81674" lon="2.38459">
        <ele>40.51</ele>
        <time>2021-06-13T13:52:25Z</time>
      </trkpt>
      <trkpt lat="50.81761" lon="2.38384">
        <ele>41.95</ele>
        <time>2021-06-13T13:52:10Z</time>
      </trkpt>
      <trkpt lat="50.81767" lon="2.38378">
        <ele>42.44</ele>
        <time>2021-06-13T13:52:09Z</time>
      </trkpt>
      <trkpt lat="50.8184" lon="2.38286">
        <ele>45.32</ele>
        <time>2021-06-13T13:51:55Z</time>
      </trkpt>
      <trkpt lat="50.81844" lon="2.38281">
        <ele>45.32</ele>
        <time>2021-06-13T13:51:54Z</time>
      </trkpt>
      <trkpt lat="50.81849" lon="2.38275">
        <ele>45.32</ele>
        <time>2021-06-13T13:51:53Z</time>
      </trkpt>
      <trkpt lat="50.81854" lon="2.38268">
        <ele>45.32</ele>
        <time>2021-06-13T13:51:52Z</time>
      </trkpt>
      <trkpt lat="50.81858" lon="2.38261">
        <ele>45.32</ele>
        <time>2021-06-13T13:51:51Z</time>
      </trkpt>
      <trkpt lat="50.8186" lon="2.38253">
        <ele>45.32</ele>
        <time>2021-06-13T13:51:50Z</time>
      </trkpt>
      <trkpt lat="50.8186" lon="2.38235">
        <ele>45.8</ele>
        <time>2021-06-13T13:51:48Z</time>
      </trkpt>
      <trkpt lat="50.81861" lon="2.3821">
        <ele>46.76</ele>
        <time>2021-06-13T13:51:45Z</time>
      </trkpt>
      <trkpt lat="50.81861" lon="2.38202">
        <ele>46.76</ele>
        <time>2021-06-13T13:51:44Z</time>
      </trkpt>
      <trkpt lat="50.81857" lon="2.38186">
        <ele>46.76</ele>
        <time>2021-06-13T13:51:42Z</time>
      </trkpt>
      <trkpt lat="50.81831" lon="2.38047">
        <ele>47.24</ele>
        <time>2021-06-13T13:51:26Z</time>
      </trkpt>
      <trkpt lat="50.81814" lon="2.37899">
        <ele>48.68</ele>
        <time>2021-06-13T13:51:10Z</time>
      </trkpt>
      <trkpt lat="50.818" lon="2.37836">
        <ele>49.16</ele>
        <time>2021-06-13T13:51:03Z</time>
      </trkpt>
      <trkpt lat="50.81764" lon="2.3768">
        <ele>50.13</ele>
        <time>2021-06-13T13:50:46Z</time>
      </trkpt>
      <trkpt lat="50.81728" lon="2.3757">
        <ele>52.05</ele>
        <time>2021-06-13T13:50:34Z</time>
      </trkpt>
      <trkpt lat="50.81709" lon="2.37529">
        <ele>53.49</ele>
        <time>2021-06-13T13:50:29Z</time>
      </trkpt>
      <trkpt lat="50.81699" lon="2.37513">
        <ele>52.05</ele>
        <time>2021-06-13T13:50:27Z</time>
      </trkpt>
      <trkpt lat="50.8165" lon="2.3746">
        <ele>53.97</ele>
        <time>2021-06-13T13:50:18Z</time>
      </trkpt>
      <trkpt lat="50.81575" lon="2.37373">
        <ele>56.86</ele>
        <time>2021-06-13T13:50:04Z</time>
      </trkpt>
      <trkpt lat="50.81507" lon="2.37293">
        <ele>58.3</ele>
        <time>2021-06-13T13:49:51Z</time>
      </trkpt>
      <trkpt lat="50.81479" lon="2.37257">
        <ele>60.22</ele>
        <time>2021-06-13T13:49:45Z</time>
      </trkpt>
      <trkpt lat="50.81475" lon="2.37252">
        <ele>60.22</ele>
        <time>2021-06-13T13:49:44Z</time>
      </trkpt>
      <trkpt lat="50.81415" lon="2.37154">
        <ele>63.58</ele>
        <time>2021-06-13T13:49:29Z</time>
      </trkpt>
      <trkpt lat="50.81397" lon="2.37121">
        <ele>64.07</ele>
        <time>2021-06-13T13:49:23Z</time>
      </trkpt>
      <trkpt lat="50.81391" lon="2.37116">
        <ele>65.99</ele>
        <time>2021-06-13T13:49:21Z</time>
      </trkpt>
      <trkpt lat="50.81388" lon="2.37113">
        <ele>65.99</ele>
        <time>2021-06-13T13:49:20Z</time>
      </trkpt>
      <trkpt lat="50.81385" lon="2.37109">
        <ele>65.99</ele>
        <time>2021-06-13T13:49:19Z</time>
      </trkpt>
      <trkpt lat="50.81389" lon="2.37046">
        <ele>65.51</ele>
        <time>2021-06-13T13:49:08Z</time>
      </trkpt>
      <trkpt lat="50.81391" lon="2.37035">
        <ele>64.07</ele>
        <time>2021-06-13T13:49:06Z</time>
      </trkpt>
      <trkpt lat="50.81402" lon="2.36977">
        <ele>64.07</ele>
        <time>2021-06-13T13:48:55Z</time>
      </trkpt>
      <trkpt lat="50.81403" lon="2.36974">
        <ele>64.07</ele>
        <time>2021-06-13T13:48:54Z</time>
      </trkpt>
      <trkpt lat="50.81402" lon="2.36971">
        <ele>64.07</ele>
        <time>2021-06-13T13:48:53Z</time>
      </trkpt>
      <trkpt lat="50.81402" lon="2.36969">
        <ele>64.07</ele>
        <time>2021-06-13T13:48:35Z</time>
      </trkpt>
      <trkpt lat="50.81402" lon="2.36971">
        <ele>64.07</ele>
        <time>2021-06-13T13:48:11Z</time>
      </trkpt>
      <trkpt lat="50.81395" lon="2.36965">
        <ele>64.55</ele>
        <time>2021-06-13T13:48:02Z</time>
      </trkpt>
      <trkpt lat="50.81353" lon="2.36942">
        <ele>67.43</ele>
        <time>2021-06-13T13:47:52Z</time>
      </trkpt>
      <trkpt lat="50.81268" lon="2.36935">
        <ele>70.79</ele>
        <time>2021-06-13T13:47:36Z</time>
      </trkpt>
      <trkpt lat="50.81186" lon="2.36918">
        <ele>72.24</ele>
        <time>2021-06-13T13:47:18Z</time>
      </trkpt>
      <trkpt lat="50.81181" lon="2.36917">
        <ele>73.2</ele>
        <time>2021-06-13T13:47:17Z</time>
      </trkpt>
      <trkpt lat="50.81178" lon="2.36916">
        <ele>73.2</ele>
        <time>2021-06-13T13:47:16Z</time>
      </trkpt>
      <trkpt lat="50.81174" lon="2.36915">
        <ele>73.2</ele>
        <time>2021-06-13T13:47:15Z</time>
      </trkpt>
      <trkpt lat="50.8117" lon="2.36912">
        <ele>73.2</ele>
        <time>2021-06-13T13:47:14Z</time>
      </trkpt>
      <trkpt lat="50.81166" lon="2.36908">
        <ele>73.2</ele>
        <time>2021-06-13T13:47:13Z</time>
      </trkpt>
      <trkpt lat="50.81141" lon="2.36872">
        <ele>64.7</ele>
        <time>2021-06-13T13:47:07Z</time>
      </trkpt>
      <trkpt lat="50.81104" lon="2.36891">
        <ele>72.72</ele>
        <time>2021-06-13T13:46:52Z</time>
      </trkpt>
      <trkpt lat="50.81059" lon="2.3691">
        <ele>70.79</ele>
        <time>2021-06-13T13:46:36Z</time>
      </trkpt>
      <trkpt lat="50.81022" lon="2.36922">
        <ele>67.43</ele>
        <time>2021-06-13T13:46:23Z</time>
      </trkpt>
      <trkpt lat="50.81004" lon="2.36928">
        <ele>66.47</ele>
        <time>2021-06-13T13:46:17Z</time>
      </trkpt>
      <trkpt lat="50.80997" lon="2.36931">
        <ele>67.91</ele>
        <time>2021-06-13T13:46:15Z</time>
      </trkpt>
      <trkpt lat="50.80994" lon="2.36931">
        <ele>67.91</ele>
        <time>2021-06-13T13:46:14Z</time>
      </trkpt>
      <trkpt lat="50.80969" lon="2.36939">
        <ele>63.58</ele>
        <time>2021-06-13T13:46:06Z</time>
      </trkpt>
      <trkpt lat="50.80966" lon="2.3694">
        <ele>63.58</ele>
        <time>2021-06-13T13:46:05Z</time>
      </trkpt>
      <trkpt lat="50.80932" lon="2.36946">
        <ele>60.22</ele>
        <time>2021-06-13T13:45:56Z</time>
      </trkpt>
      <trkpt lat="50.80915" lon="2.36945">
        <ele>59.74</ele>
        <time>2021-06-13T13:45:52Z</time>
      </trkpt>
      <trkpt lat="50.8091" lon="2.36944">
        <ele>59.74</ele>
        <time>2021-06-13T13:45:51Z</time>
      </trkpt>
      <trkpt lat="50.80906" lon="2.36943">
        <ele>59.74</ele>
        <time>2021-06-13T13:45:50Z</time>
      </trkpt>
      <trkpt lat="50.80902" lon="2.36941">
        <ele>59.74</ele>
        <time>2021-06-13T13:45:49Z</time>
      </trkpt>
      <trkpt lat="50.80898" lon="2.36938">
        <ele>59.74</ele>
        <time>2021-06-13T13:45:48Z</time>
      </trkpt>
      <trkpt lat="50.80894" lon="2.36935">
        <ele>59.26</ele>
        <time>2021-06-13T13:45:47Z</time>
      </trkpt>
      <trkpt lat="50.80884" lon="2.36923">
        <ele>59.26</ele>
        <time>2021-06-13T13:45:44Z</time>
      </trkpt>
      <trkpt lat="50.80851" lon="2.36879">
        <ele>57.34</ele>
        <time>2021-06-13T13:45:34Z</time>
      </trkpt>
      <trkpt lat="50.80823" lon="2.36853">
        <ele>55.89</ele>
        <time>2021-06-13T13:45:27Z</time>
      </trkpt>
      <trkpt lat="50.80753" lon="2.36799">
        <ele>53.97</ele>
        <time>2021-06-13T13:45:10Z</time>
      </trkpt>
      <trkpt lat="50.80694" lon="2.36737">
        <ele>53.01</ele>
        <time>2021-06-13T13:44:55Z</time>
      </trkpt>
      <trkpt lat="50.80673" lon="2.36718">
        <ele>53.01</ele>
        <time>2021-06-13T13:44:50Z</time>
      </trkpt>
      <trkpt lat="50.80592" lon="2.3663">
        <ele>50.61</ele>
        <time>2021-06-13T13:44:30Z</time>
      </trkpt>
      <trkpt lat="50.80589" lon="2.36625">
        <ele>50.61</ele>
        <time>2021-06-13T13:44:29Z</time>
      </trkpt>
      <trkpt lat="50.80585" lon="2.36621">
        <ele>50.61</ele>
        <time>2021-06-13T13:44:28Z</time>
      </trkpt>
      <trkpt lat="50.80581" lon="2.36618">
        <ele>50.13</ele>
        <time>2021-06-13T13:44:27Z</time>
      </trkpt>
      <trkpt lat="50.80576" lon="2.36617">
        <ele>50.13</ele>
        <time>2021-06-13T13:44:26Z</time>
      </trkpt>
      <trkpt lat="50.80572" lon="2.36618">
        <ele>50.13</ele>
        <time>2021-06-13T13:44:25Z</time>
      </trkpt>
      <trkpt lat="50.80568" lon="2.3662">
        <ele>49.65</ele>
        <time>2021-06-13T13:44:24Z</time>
      </trkpt>
      <trkpt lat="50.80564" lon="2.36623">
        <ele>49.65</ele>
        <time>2021-06-13T13:44:23Z</time>
      </trkpt>
      <trkpt lat="50.8056" lon="2.36627">
        <ele>49.16</ele>
        <time>2021-06-13T13:44:22Z</time>
      </trkpt>
      <trkpt lat="50.80556" lon="2.36633">
        <ele>49.16</ele>
        <time>2021-06-13T13:44:21Z</time>
      </trkpt>
      <trkpt lat="50.80553" lon="2.36638">
        <ele>48.68</ele>
        <time>2021-06-13T13:44:20Z</time>
      </trkpt>
      <trkpt lat="50.80549" lon="2.36641">
        <ele>48.68</ele>
        <time>2021-06-13T13:44:19Z</time>
      </trkpt>
      <trkpt lat="50.80544" lon="2.36642">
        <ele>48.68</ele>
        <time>2021-06-13T13:44:18Z</time>
      </trkpt>
      <trkpt lat="50.8054" lon="2.36639">
        <ele>48.2</ele>
        <time>2021-06-13T13:44:17Z</time>
      </trkpt>
      <trkpt lat="50.80498" lon="2.36574">
        <ele>48.2</ele>
        <time>2021-06-13T13:44:06Z</time>
      </trkpt>
      <trkpt lat="50.80449" lon="2.36489">
        <ele>44.84</ele>
        <time>2021-06-13T13:43:54Z</time>
      </trkpt>
      <trkpt lat="50.80445" lon="2.3648">
        <ele>44.84</ele>
        <time>2021-06-13T13:43:53Z</time>
      </trkpt>
      <trkpt lat="50.80441" lon="2.36472">
        <ele>44.84</ele>
        <time>2021-06-13T13:43:52Z</time>
      </trkpt>
      <trkpt lat="50.80438" lon="2.36462">
        <ele>45.32</ele>
        <time>2021-06-13T13:43:51Z</time>
      </trkpt>
      <trkpt lat="50.80436" lon="2.36453">
        <ele>45.32</ele>
        <time>2021-06-13T13:43:50Z</time>
      </trkpt>
      <trkpt lat="50.80434" lon="2.36443">
        <ele>45.32</ele>
        <time>2021-06-13T13:43:49Z</time>
      </trkpt>
      <trkpt lat="50.80435" lon="2.36434">
        <ele>46.28</ele>
        <time>2021-06-13T13:43:48Z</time>
      </trkpt>
      <trkpt lat="50.80468" lon="2.36334">
        <ele>49.16</ele>
        <time>2021-06-13T13:43:38Z</time>
      </trkpt>
      <trkpt lat="50.80534" lon="2.36191">
        <ele>52.05</ele>
        <time>2021-06-13T13:43:20Z</time>
      </trkpt>
      <trkpt lat="50.80537" lon="2.36184">
        <ele>52.05</ele>
        <time>2021-06-13T13:43:19Z</time>
      </trkpt>
      <trkpt lat="50.8054" lon="2.36177">
        <ele>53.49</ele>
        <time>2021-06-13T13:43:18Z</time>
      </trkpt>
      <trkpt lat="50.80542" lon="2.3617">
        <ele>53.49</ele>
        <time>2021-06-13T13:43:17Z</time>
      </trkpt>
      <trkpt lat="50.80543" lon="2.36163">
        <ele>53.49</ele>
        <time>2021-06-13T13:43:16Z</time>
      </trkpt>
      <trkpt lat="50.80541" lon="2.36155">
        <ele>53.49</ele>
        <time>2021-06-13T13:43:15Z</time>
      </trkpt>
      <trkpt lat="50.80539" lon="2.36149">
        <ele>53.49</ele>
        <time>2021-06-13T13:43:14Z</time>
      </trkpt>
      <trkpt lat="50.8052" lon="2.36131">
        <ele>53.49</ele>
        <time>2021-06-13T13:43:10Z</time>
      </trkpt>
      <trkpt lat="50.80431" lon="2.36053">
        <ele>52.53</ele>
        <time>2021-06-13T13:42:52Z</time>
      </trkpt>
      <trkpt lat="50.80426" lon="2.36049">
        <ele>51.57</ele>
        <time>2021-06-13T13:42:51Z</time>
      </trkpt>
      <trkpt lat="50.80421" lon="2.36045">
        <ele>52.05</ele>
        <time>2021-06-13T13:42:50Z</time>
      </trkpt>
      <trkpt lat="50.80415" lon="2.36043">
        <ele>51.57</ele>
        <time>2021-06-13T13:42:49Z</time>
      </trkpt>
      <trkpt lat="50.8041" lon="2.36044">
        <ele>52.05</ele>
        <time>2021-06-13T13:42:48Z</time>
      </trkpt>
      <trkpt lat="50.80406" lon="2.36047">
        <ele>52.05</ele>
        <time>2021-06-13T13:42:47Z</time>
      </trkpt>
      <trkpt lat="50.80353" lon="2.36148">
        <ele>50.61</ele>
        <time>2021-06-13T13:42:32Z</time>
      </trkpt>
      <trkpt lat="50.80276" lon="2.36302">
        <ele>47.24</ele>
        <time>2021-06-13T13:42:11Z</time>
      </trkpt>
      <trkpt lat="50.80186" lon="2.36483">
        <ele>44.84</ele>
        <time>2021-06-13T13:41:46Z</time>
      </trkpt>
      <trkpt lat="50.80149" lon="2.36557">
        <ele>43.4</ele>
        <time>2021-06-13T13:41:36Z</time>
      </trkpt>
      <trkpt lat="50.80145" lon="2.36565">
        <ele>43.4</ele>
        <time>2021-06-13T13:41:35Z</time>
      </trkpt>
      <trkpt lat="50.8014" lon="2.36572">
        <ele>43.4</ele>
        <time>2021-06-13T13:41:34Z</time>
      </trkpt>
      <trkpt lat="50.80135" lon="2.36577">
        <ele>43.4</ele>
        <time>2021-06-13T13:41:33Z</time>
      </trkpt>
      <trkpt lat="50.80129" lon="2.36579">
        <ele>43.4</ele>
        <time>2021-06-13T13:41:32Z</time>
      </trkpt>
      <trkpt lat="50.80124" lon="2.36579">
        <ele>43.4</ele>
        <time>2021-06-13T13:41:31Z</time>
      </trkpt>
      <trkpt lat="50.80118" lon="2.36576">
        <ele>43.4</ele>
        <time>2021-06-13T13:41:30Z</time>
      </trkpt>
      <trkpt lat="50.80114" lon="2.36571">
        <ele>43.4</ele>
        <time>2021-06-13T13:41:29Z</time>
      </trkpt>
      <trkpt lat="50.8011" lon="2.36565">
        <ele>43.4</ele>
        <time>2021-06-13T13:41:28Z</time>
      </trkpt>
      <trkpt lat="50.80077" lon="2.36461">
        <ele>44.84</ele>
        <time>2021-06-13T13:41:16Z</time>
      </trkpt>
      <trkpt lat="50.80013" lon="2.36341">
        <ele>46.28</ele>
        <time>2021-06-13T13:41:00Z</time>
      </trkpt>
      <trkpt lat="50.80008" lon="2.36335">
        <ele>46.76</ele>
        <time>2021-06-13T13:40:59Z</time>
      </trkpt>
      <trkpt lat="50.80004" lon="2.36329">
        <ele>46.76</ele>
        <time>2021-06-13T13:40:58Z</time>
      </trkpt>
      <trkpt lat="50.79999" lon="2.36321">
        <ele>46.76</ele>
        <time>2021-06-13T13:40:57Z</time>
      </trkpt>
      <trkpt lat="50.79995" lon="2.36314">
        <ele>46.76</ele>
        <time>2021-06-13T13:40:56Z</time>
      </trkpt>
      <trkpt lat="50.79992" lon="2.36306">
        <ele>46.76</ele>
        <time>2021-06-13T13:40:55Z</time>
      </trkpt>
      <trkpt lat="50.79966" lon="2.36215">
        <ele>47.72</ele>
        <time>2021-06-13T13:40:44Z</time>
      </trkpt>
      <trkpt lat="50.79897" lon="2.36088">
        <ele>47.24</ele>
        <time>2021-06-13T13:40:25Z</time>
      </trkpt>
      <trkpt lat="50.7981" lon="2.35993">
        <ele>46.76</ele>
        <time>2021-06-13T13:40:05Z</time>
      </trkpt>
      <trkpt lat="50.79805" lon="2.35988">
        <ele>46.76</ele>
        <time>2021-06-13T13:40:04Z</time>
      </trkpt>
      <trkpt lat="50.79801" lon="2.35984">
        <ele>46.76</ele>
        <time>2021-06-13T13:40:03Z</time>
      </trkpt>
      <trkpt lat="50.79721" lon="2.35956">
        <ele>46.28</ele>
        <time>2021-06-13T13:39:47Z</time>
      </trkpt>
      <trkpt lat="50.79634" lon="2.35909">
        <ele>44.84</ele>
        <time>2021-06-13T13:39:28Z</time>
      </trkpt>
      <trkpt lat="50.7958" lon="2.35884">
        <ele>44.84</ele>
        <time>2021-06-13T13:39:14Z</time>
      </trkpt>
      <trkpt lat="50.79532" lon="2.35862">
        <ele>43.4</ele>
        <time>2021-06-13T13:38:59Z</time>
      </trkpt>
      <trkpt lat="50.79492" lon="2.35845">
        <ele>37.9</ele>
        <time>2021-06-13T13:38:17Z</time>
      </trkpt>
      <trkpt lat="50.79492" lon="2.35865">
        <ele>37.9</ele>
      </trkpt>
      <trkpt lat="50.79503" lon="2.35894">
        <ele>43.88</ele>
        <time>2021-06-13T13:38:07Z</time>
      </trkpt>
      <trkpt lat="50.79504" lon="2.35899">
        <ele>43.88</ele>
        <time>2021-06-13T13:38:06Z</time>
      </trkpt>
      <trkpt lat="50.79506" lon="2.35906">
        <ele>43.88</ele>
        <time>2021-06-13T13:38:05Z</time>
      </trkpt>
      <trkpt lat="50.79507" lon="2.35918">
        <ele>43.88</ele>
        <time>2021-06-13T13:38:03Z</time>
      </trkpt>
      <trkpt lat="50.79496" lon="2.36022">
        <ele>42.92</ele>
        <time>2021-06-13T13:37:49Z</time>
      </trkpt>
      <trkpt lat="50.7948" lon="2.36139">
        <ele>40.99</ele>
        <time>2021-06-13T13:37:34Z</time>
      </trkpt>
      <trkpt lat="50.79447" lon="2.36262">
        <ele>40.51</ele>
        <time>2021-06-13T13:37:18Z</time>
      </trkpt>
      <trkpt lat="50.79398" lon="2.36367">
        <ele>39.07</ele>
        <time>2021-06-13T13:37:00Z</time>
      </trkpt>
      <trkpt lat="50.79395" lon="2.36373">
        <ele>39.07</ele>
        <time>2021-06-13T13:36:59Z</time>
      </trkpt>
      <trkpt lat="50.79393" lon="2.36378">
        <ele>39.07</ele>
        <time>2021-06-13T13:36:58Z</time>
      </trkpt>
      <trkpt lat="50.79368" lon="2.36446">
        <ele>38.59</ele>
        <time>2021-06-13T13:36:47Z</time>
      </trkpt>
      <trkpt lat="50.79353" lon="2.36487">
        <ele>37.63</ele>
        <time>2021-06-13T13:36:40Z</time>
      </trkpt>
      <trkpt lat="50.79315" lon="2.36555">
        <ele>36.19</ele>
        <time>2021-06-13T13:36:25Z</time>
      </trkpt>
      <trkpt lat="50.79275" lon="2.36621">
        <ele>34.74</ele>
        <time>2021-06-13T13:36:10Z</time>
      </trkpt>
      <trkpt lat="50.79248" lon="2.36676">
        <ele>34.26</ele>
        <time>2021-06-13T13:35:57Z</time>
      </trkpt>
      <trkpt lat="50.79225" lon="2.3671">
        <ele>31.38</ele>
        <time>2021-06-13T13:35:44Z</time>
      </trkpt>
      <trkpt lat="50.7921" lon="2.36725">
        <ele>28.5</ele>
        <time>2021-06-13T13:35:34Z</time>
      </trkpt>
      <trkpt lat="50.79192" lon="2.36758">
        <ele>26.09</ele>
        <time>2021-06-13T13:35:23Z</time>
      </trkpt>
      <trkpt lat="50.79175" lon="2.3679">
        <ele>28.98</ele>
        <time>2021-06-13T13:35:16Z</time>
      </trkpt>
      <trkpt lat="50.79164" lon="2.36807">
        <ele>31.38</ele>
        <time>2021-06-13T13:35:11Z</time>
      </trkpt>
      <trkpt lat="50.79146" lon="2.36833">
        <ele>33.3</ele>
        <time>2021-06-13T13:35:01Z</time>
      </trkpt>
      <trkpt lat="50.79116" lon="2.36901">
        <ele>35.23</ele>
        <time>2021-06-13T13:34:47Z</time>
      </trkpt>
      <trkpt lat="50.79096" lon="2.36945">
        <ele>30.4</ele>
        <time>2021-06-13T13:34:37Z</time>
      </trkpt>
      <trkpt lat="50.79074" lon="2.36923">
        <ele>35.23</ele>
        <time>2021-06-13T13:33:52Z</time>
      </trkpt>
      <trkpt lat="50.79071" lon="2.3692">
        <ele>35.23</ele>
        <time>2021-06-13T13:33:51Z</time>
      </trkpt>
      <trkpt lat="50.79023" lon="2.36846">
        <ele>36.67</ele>
        <time>2021-06-13T13:33:36Z</time>
      </trkpt>
      <trkpt lat="50.78966" lon="2.36749">
        <ele>35.71</ele>
        <time>2021-06-13T13:33:18Z</time>
      </trkpt>
      <trkpt lat="50.7895" lon="2.36724">
        <ele>35.71</ele>
        <time>2021-06-13T13:33:13Z</time>
      </trkpt>
      <trkpt lat="50.78934" lon="2.36699">
        <ele>35.71</ele>
        <time>2021-06-13T13:33:08Z</time>
      </trkpt>
      <trkpt lat="50.78874" lon="2.36601">
        <ele>34.26</ele>
        <time>2021-06-13T13:32:48Z</time>
      </trkpt>
      <trkpt lat="50.78836" lon="2.36512">
        <ele>33.3</ele>
        <time>2021-06-13T13:32:30Z</time>
      </trkpt>
      <trkpt lat="50.78807" lon="2.3644">
        <ele>30.42</ele>
        <time>2021-06-13T13:32:14Z</time>
      </trkpt>
      <trkpt lat="50.78769" lon="2.36377">
        <ele>27.05</ele>
        <time>2021-06-13T13:31:58Z</time>
      </trkpt>
      <trkpt lat="50.78749" lon="2.36339">
        <ele>25.13</ele>
        <time>2021-06-13T13:31:50Z</time>
      </trkpt>
      <trkpt lat="50.78703" lon="2.36243">
        <ele>23.21</ele>
        <time>2021-06-13T13:31:31Z</time>
      </trkpt>
      <trkpt lat="50.78653" lon="2.36149">
        <ele>20.81</ele>
        <time>2021-06-13T13:31:13Z</time>
      </trkpt>
      <trkpt lat="50.78593" lon="2.36051">
        <ele>18.4</ele>
        <time>2021-06-13T13:30:54Z</time>
      </trkpt>
      <trkpt lat="50.78517" lon="2.35954">
        <ele>16.48</ele>
        <time>2021-06-13T13:30:34Z</time>
      </trkpt>
      <trkpt lat="50.78448" lon="2.35898">
        <ele>13.6</ele>
        <time>2021-06-13T13:30:19Z</time>
      </trkpt>
      <trkpt lat="50.78443" lon="2.35895">
        <ele>13.6</ele>
        <time>2021-06-13T13:30:18Z</time>
      </trkpt>
      <trkpt lat="50.78438" lon="2.35892">
        <ele>13.6</ele>
        <time>2021-06-13T13:30:17Z</time>
      </trkpt>
      <trkpt lat="50.78434" lon="2.35888">
        <ele>13.6</ele>
        <time>2021-06-13T13:30:16Z</time>
      </trkpt>
      <trkpt lat="50.78429" lon="2.35884">
        <ele>13.6</ele>
        <time>2021-06-13T13:30:15Z</time>
      </trkpt>
      <trkpt lat="50.78425" lon="2.35878">
        <ele>13.12</ele>
        <time>2021-06-13T13:30:14Z</time>
      </trkpt>
      <trkpt lat="50.78421" lon="2.35872">
        <ele>13.12</ele>
        <time>2021-06-13T13:30:13Z</time>
      </trkpt>
      <trkpt lat="50.78386" lon="2.35787">
        <ele>12.15</ele>
        <time>2021-06-13T13:30:01Z</time>
      </trkpt>
      <trkpt lat="50.78345" lon="2.35685">
        <ele>10.71</ele>
        <time>2021-06-13T13:29:46Z</time>
      </trkpt>
      <trkpt lat="50.7834" lon="2.35667">
        <ele>10.71</ele>
        <time>2021-06-13T13:29:43Z</time>
      </trkpt>
      <trkpt lat="50.78338" lon="2.35661">
        <ele>10.71</ele>
        <time>2021-06-13T13:29:42Z</time>
      </trkpt>
      <trkpt lat="50.78337" lon="2.35656">
        <ele>10.71</ele>
        <time>2021-06-13T13:29:41Z</time>
      </trkpt>
      <trkpt lat="50.78334" lon="2.35652">
        <ele>10.71</ele>
        <time>2021-06-13T13:29:40Z</time>
      </trkpt>
      <trkpt lat="50.78331" lon="2.3565">
        <ele>10.71</ele>
        <time>2021-06-13T13:29:39Z</time>
      </trkpt>
      <trkpt lat="50.78327" lon="2.35651">
        <ele>10.71</ele>
        <time>2021-06-13T13:29:38Z</time>
      </trkpt>
      <trkpt lat="50.78317" lon="2.3566">
        <ele>10.71</ele>
        <time>2021-06-13T13:29:36Z</time>
      </trkpt>
      <trkpt lat="50.78223" lon="2.35792">
        <ele>12.63</ele>
        <time>2021-06-13T13:29:18Z</time>
      </trkpt>
      <trkpt lat="50.78143" lon="2.35941">
        <ele>13.12</ele>
        <time>2021-06-13T13:28:59Z</time>
      </trkpt>
      <trkpt lat="50.78065" lon="2.36105">
        <ele>11.19</ele>
        <time>2021-06-13T13:28:39Z</time>
      </trkpt>
      <trkpt lat="50.7803" lon="2.36166">
        <ele>9.75</ele>
        <time>2021-06-13T13:28:31Z</time>
      </trkpt>
      <trkpt lat="50.78005" lon="2.36201">
        <ele>11.19</ele>
        <time>2021-06-13T13:28:26Z</time>
      </trkpt>
      <trkpt lat="50.77931" lon="2.36301">
        <ele>9.27</ele>
        <time>2021-06-13T13:28:11Z</time>
      </trkpt>
      <trkpt lat="50.77887" lon="2.36361">
        <ele>10.71</ele>
        <time>2021-06-13T13:28:02Z</time>
      </trkpt>
      <trkpt lat="50.77872" lon="2.36381">
        <ele>9.27</ele>
        <time>2021-06-13T13:27:59Z</time>
      </trkpt>
      <trkpt lat="50.77793" lon="2.36489">
        <ele>10.71</ele>
        <time>2021-06-13T13:27:42Z</time>
      </trkpt>
      <trkpt lat="50.77748" lon="2.36549">
        <ele>9.27</ele>
        <time>2021-06-13T13:27:32Z</time>
      </trkpt>
      <trkpt lat="50.77744" lon="2.36555">
        <ele>9.27</ele>
        <time>2021-06-13T13:27:31Z</time>
      </trkpt>
      <trkpt lat="50.77735" lon="2.36566">
        <ele>10.71</ele>
        <time>2021-06-13T13:27:29Z</time>
      </trkpt>
      <trkpt lat="50.77726" lon="2.3657">
        <ele>10.71</ele>
        <time>2021-06-13T13:27:27Z</time>
      </trkpt>
      <trkpt lat="50.77721" lon="2.36568">
        <ele>10.23</ele>
        <time>2021-06-13T13:27:26Z</time>
      </trkpt>
      <trkpt lat="50.77717" lon="2.36562">
        <ele>10.23</ele>
        <time>2021-06-13T13:27:25Z</time>
      </trkpt>
      <trkpt lat="50.77712" lon="2.36547">
        <ele>10.23</ele>
        <time>2021-06-13T13:27:23Z</time>
      </trkpt>
      <trkpt lat="50.77712" lon="2.3653">
        <ele>9.75</ele>
        <time>2021-06-13T13:27:21Z</time>
      </trkpt>
      <trkpt lat="50.77716" lon="2.36503">
        <ele>9.27</ele>
        <time>2021-06-13T13:27:18Z</time>
      </trkpt>
      <trkpt lat="50.77718" lon="2.36484">
        <ele>8.79</ele>
        <time>2021-06-13T13:27:16Z</time>
      </trkpt>
      <trkpt lat="50.77718" lon="2.36464">
        <ele>8.79</ele>
        <time>2021-06-13T13:27:14Z</time>
      </trkpt>
      <trkpt lat="50.77713" lon="2.36446">
        <ele>8.79</ele>
        <time>2021-06-13T13:27:12Z</time>
      </trkpt>
      <trkpt lat="50.77704" lon="2.36432">
        <ele>8.79</ele>
        <time>2021-06-13T13:27:10Z</time>
      </trkpt>
      <trkpt lat="50.77671" lon="2.36407">
        <ele>7.35</ele>
        <time>2021-06-13T13:27:04Z</time>
      </trkpt>
      <trkpt lat="50.77653" lon="2.36396">
        <ele>9.27</ele>
        <time>2021-06-13T13:27:01Z</time>
      </trkpt>
      <trkpt lat="50.77567" lon="2.36297">
        <ele>6.87</ele>
        <time>2021-06-13T13:26:44Z</time>
      </trkpt>
      <trkpt lat="50.77542" lon="2.36262">
        <ele>6.87</ele>
        <time>2021-06-13T13:26:39Z</time>
      </trkpt>
      <trkpt lat="50.77503" lon="2.36205">
        <ele>8.79</ele>
        <time>2021-06-13T13:26:31Z</time>
      </trkpt>
      <trkpt lat="50.77498" lon="2.36198">
        <ele>8.31</ele>
        <time>2021-06-13T13:26:30Z</time>
      </trkpt>
      <trkpt lat="50.77481" lon="2.36152">
        <ele>8.31</ele>
        <time>2021-06-13T13:26:25Z</time>
      </trkpt>
      <trkpt lat="50.77466" lon="2.36116">
        <ele>6.39</ele>
        <time>2021-06-13T13:26:21Z</time>
      </trkpt>
      <trkpt lat="50.77393" lon="2.35961">
        <ele>6.39</ele>
        <time>2021-06-13T13:26:03Z</time>
      </trkpt>
      <trkpt lat="50.77385" lon="2.35944">
        <ele>6.87</ele>
        <time>2021-06-13T13:26:01Z</time>
      </trkpt>
      <trkpt lat="50.77381" lon="2.35936">
        <ele>7.83</ele>
        <time>2021-06-13T13:26:00Z</time>
      </trkpt>
      <trkpt lat="50.77376" lon="2.35929">
        <ele>8.31</ele>
        <time>2021-06-13T13:25:59Z</time>
      </trkpt>
      <trkpt lat="50.77334" lon="2.35906">
        <ele>8.31</ele>
        <time>2021-06-13T13:25:52Z</time>
      </trkpt>
      <trkpt lat="50.77327" lon="2.35903">
        <ele>8.31</ele>
        <time>2021-06-13T13:25:51Z</time>
      </trkpt>
      <trkpt lat="50.77251" lon="2.35873">
        <ele>9.75</ele>
        <time>2021-06-13T13:25:37Z</time>
      </trkpt>
      <trkpt lat="50.77246" lon="2.35871">
        <ele>9.75</ele>
        <time>2021-06-13T13:25:36Z</time>
      </trkpt>
      <trkpt lat="50.77241" lon="2.3587">
        <ele>9.75</ele>
        <time>2021-06-13T13:25:35Z</time>
      </trkpt>
      <trkpt lat="50.77238" lon="2.35868">
        <ele>9.75</ele>
        <time>2021-06-13T13:25:34Z</time>
      </trkpt>
      <trkpt lat="50.77235" lon="2.35864">
        <ele>9.75</ele>
        <time>2021-06-13T13:25:33Z</time>
      </trkpt>
      <trkpt lat="50.77232" lon="2.35857">
        <ele>9.75</ele>
        <time>2021-06-13T13:25:32Z</time>
      </trkpt>
      <trkpt lat="50.77232" lon="2.3585">
        <ele>9.75</ele>
        <time>2021-06-13T13:25:31Z</time>
      </trkpt>
      <trkpt lat="50.77233" lon="2.35843">
        <ele>9.27</ele>
        <time>2021-06-13T13:25:30Z</time>
      </trkpt>
      <trkpt lat="50.77241" lon="2.35815">
        <ele>9.27</ele>
        <time>2021-06-13T13:25:26Z</time>
      </trkpt>
      <trkpt lat="50.77283" lon="2.35704">
        <ele>9.27</ele>
        <time>2021-06-13T13:25:10Z</time>
      </trkpt>
      <trkpt lat="50.77285" lon="2.35698">
        <ele>9.27</ele>
        <time>2021-06-13T13:25:09Z</time>
      </trkpt>
      <trkpt lat="50.77287" lon="2.35694">
        <ele>9.27</ele>
        <time>2021-06-13T13:25:08Z</time>
      </trkpt>
      <trkpt lat="50.77289" lon="2.35689">
        <ele>9.27</ele>
        <time>2021-06-13T13:25:07Z</time>
      </trkpt>
      <trkpt lat="50.77291" lon="2.35685">
        <ele>9.27</ele>
        <time>2021-06-13T13:25:06Z</time>
      </trkpt>
      <trkpt lat="50.77292" lon="2.35681">
        <ele>9.27</ele>
        <time>2021-06-13T13:25:05Z</time>
      </trkpt>
      <trkpt lat="50.7729" lon="2.35673">
        <ele>7.83</ele>
        <time>2021-06-13T13:25:02Z</time>
      </trkpt>
      <trkpt lat="50.77241" lon="2.35696">
        <ele>6.87</ele>
        <time>2021-06-13T13:24:48Z</time>
      </trkpt>
      <trkpt lat="50.7723" lon="2.35705">
        <ele>7.35</ele>
        <time>2021-06-13T13:24:45Z</time>
      </trkpt>
      <trkpt lat="50.77187" lon="2.35733">
        <ele>7.35</ele>
        <time>2021-06-13T13:24:34Z</time>
      </trkpt>
      <trkpt lat="50.7716" lon="2.35749">
        <ele>7.35</ele>
        <time>2021-06-13T13:24:27Z</time>
      </trkpt>
      <trkpt lat="50.77136" lon="2.35741">
        <ele>7.35</ele>
        <time>2021-06-13T13:24:20Z</time>
      </trkpt>
      <trkpt lat="50.77138" lon="2.35712">
        <ele>8.31</ele>
        <time>2021-06-13T13:24:15Z</time>
      </trkpt>
      <trkpt lat="50.7714" lon="2.35699">
        <ele>8.31</ele>
        <time>2021-06-13T13:24:13Z</time>
      </trkpt>
      <trkpt lat="50.77154" lon="2.3565">
        <ele>9.75</ele>
        <time>2021-06-13T13:24:04Z</time>
      </trkpt>
      <trkpt lat="50.77175" lon="2.35615">
        <ele>10.23</ele>
        <time>2021-06-13T13:23:54Z</time>
      </trkpt>
      <trkpt lat="50.77147" lon="2.35585">
        <ele>10.23</ele>
        <time>2021-06-13T13:23:45Z</time>
      </trkpt>
      <trkpt lat="50.77123" lon="2.35559">
        <ele>11.19</ele>
        <time>2021-06-13T13:23:39Z</time>
      </trkpt>
      <trkpt lat="50.77093" lon="2.35526">
        <ele>12.63</ele>
        <time>2021-06-13T13:23:31Z</time>
      </trkpt>
      <trkpt lat="50.77041" lon="2.35472">
        <ele>12.63</ele>
        <time>2021-06-13T13:23:17Z</time>
      </trkpt>
      <trkpt lat="50.76994" lon="2.35415">
        <ele>13.6</ele>
        <time>2021-06-13T13:23:04Z</time>
      </trkpt>
      <trkpt lat="50.76953" lon="2.35365">
        <ele>15.04</ele>
        <time>2021-06-13T13:22:52Z</time>
      </trkpt>
      <trkpt lat="50.76908" lon="2.35309">
        <ele>15.04</ele>
        <time>2021-06-13T13:22:38Z</time>
      </trkpt>
      <trkpt lat="50.76878" lon="2.35276">
        <ele>15.04</ele>
        <time>2021-06-13T13:22:27Z</time>
      </trkpt>
      <trkpt lat="50.76852" lon="2.35241">
        <ele>15.04</ele>
        <time>2021-06-13T13:22:16Z</time>
      </trkpt>
      <trkpt lat="50.76837" lon="2.35228">
        <ele>13.6</ele>
        <time>2021-06-13T13:22:10Z</time>
      </trkpt>
      <trkpt lat="50.76818" lon="2.35205">
        <ele>14.08</ele>
        <time>2021-06-13T13:22:04Z</time>
      </trkpt>
      <trkpt lat="50.76787" lon="2.35173">
        <ele>14.08</ele>
        <time>2021-06-13T13:21:55Z</time>
      </trkpt>
      <trkpt lat="50.76753" lon="2.35135">
        <ele>14.08</ele>
        <time>2021-06-13T13:21:44Z</time>
      </trkpt>
      <trkpt lat="50.76688" lon="2.35059">
        <ele>14.08</ele>
        <time>2021-06-13T13:21:27Z</time>
      </trkpt>
      <trkpt lat="50.76646" lon="2.35011">
        <ele>15.04</ele>
        <time>2021-06-13T13:21:16Z</time>
      </trkpt>
      <trkpt lat="50.76635" lon="2.34999">
        <ele>15.52</ele>
        <time>2021-06-13T13:21:13Z</time>
      </trkpt>
      <trkpt lat="50.76578" lon="2.3493">
        <ele>15.52</ele>
        <time>2021-06-13T13:20:57Z</time>
      </trkpt>
      <trkpt lat="50.76567" lon="2.34918">
        <ele>16.48</ele>
        <time>2021-06-13T13:20:54Z</time>
      </trkpt>
      <trkpt lat="50.76545" lon="2.34894">
        <ele>16.48</ele>
        <time>2021-06-13T13:20:48Z</time>
      </trkpt>
      <trkpt lat="50.76515" lon="2.34859">
        <ele>16</ele>
        <time>2021-06-13T13:20:39Z</time>
      </trkpt>
      <trkpt lat="50.76446" lon="2.3478">
        <ele>17.44</ele>
        <time>2021-06-13T13:20:21Z</time>
      </trkpt>
      <trkpt lat="50.76439" lon="2.34771">
        <ele>17.44</ele>
        <time>2021-06-13T13:20:19Z</time>
      </trkpt>
      <trkpt lat="50.76425" lon="2.34754">
        <ele>18.88</ele>
        <time>2021-06-13T13:20:15Z</time>
      </trkpt>
      <trkpt lat="50.76397" lon="2.34736">
        <ele>19.36</ele>
        <time>2021-06-13T13:20:03Z</time>
      </trkpt>
      <trkpt lat="50.76391" lon="2.34721">
        <ele>19.36</ele>
        <time>2021-06-13T13:17:13Z</time>
      </trkpt>
      <trkpt lat="50.76388" lon="2.34712">
        <ele>19.36</ele>
        <time>2021-06-13T13:17:11Z</time>
      </trkpt>
      <trkpt lat="50.76349" lon="2.34664">
        <ele>21.29</ele>
        <time>2021-06-13T13:16:59Z</time>
      </trkpt>
      <trkpt lat="50.76323" lon="2.34632">
        <ele>22.25</ele>
        <time>2021-06-13T13:16:49Z</time>
      </trkpt>
      <trkpt lat="50.76319" lon="2.34628">
        <ele>22.25</ele>
        <time>2021-06-13T13:16:39Z</time>
      </trkpt>
      <trkpt lat="50.76308" lon="2.34615">
        <ele>24.17</ele>
        <time>2021-06-13T13:16:35Z</time>
      </trkpt>
      <trkpt lat="50.76253" lon="2.34553">
        <ele>25.13</ele>
        <time>2021-06-13T13:16:22Z</time>
      </trkpt>
      <trkpt lat="50.76173" lon="2.34461">
        <ele>28.02</ele>
        <time>2021-06-13T13:16:06Z</time>
      </trkpt>
      <trkpt lat="50.76168" lon="2.34455">
        <ele>28.02</ele>
        <time>2021-06-13T13:16:05Z</time>
      </trkpt>
      <trkpt lat="50.76141" lon="2.34426">
        <ele>31.38</ele>
        <time>2021-06-13T13:16:00Z</time>
      </trkpt>
      <trkpt lat="50.7612" lon="2.34403">
        <ele>34.26</ele>
        <time>2021-06-13T13:15:56Z</time>
      </trkpt>
      <trkpt lat="50.76115" lon="2.34397">
        <ele>34.26</ele>
        <time>2021-06-13T13:15:55Z</time>
      </trkpt>
      <trkpt lat="50.76097" lon="2.34377">
        <ele>37.63</ele>
        <time>2021-06-13T13:15:51Z</time>
      </trkpt>
      <trkpt lat="50.76088" lon="2.34366">
        <ele>39.55</ele>
        <time>2021-06-13T13:15:49Z</time>
      </trkpt>
      <trkpt lat="50.76084" lon="2.34361">
        <ele>39.55</ele>
        <time>2021-06-13T13:15:48Z</time>
      </trkpt>
      <trkpt lat="50.76052" lon="2.34324">
        <ele>43.88</ele>
        <time>2021-06-13T13:15:41Z</time>
      </trkpt>
      <trkpt lat="50.76039" lon="2.34309">
        <ele>45.8</ele>
        <time>2021-06-13T13:15:38Z</time>
      </trkpt>
      <trkpt lat="50.76023" lon="2.3429">
        <ele>47.24</ele>
        <time>2021-06-13T13:15:34Z</time>
      </trkpt>
      <trkpt lat="50.76007" lon="2.3427">
        <ele>49.16</ele>
        <time>2021-06-13T13:15:28Z</time>
      </trkpt>
      <trkpt lat="50.75979" lon="2.3424">
        <ele>48.2</ele>
        <time>2021-06-13T13:15:13Z</time>
      </trkpt>
      <trkpt lat="50.75949" lon="2.34206">
        <ele>45.8</ele>
        <time>2021-06-13T13:14:57Z</time>
      </trkpt>
      <trkpt lat="50.75929" lon="2.34183">
        <ele>42.44</ele>
        <time>2021-06-13T13:14:44Z</time>
      </trkpt>
      <trkpt lat="50.75912" lon="2.34163">
        <ele>39.55</ele>
        <time>2021-06-13T13:14:32Z</time>
      </trkpt>
      <trkpt lat="50.75895" lon="2.34143">
        <ele>36.19</ele>
        <time>2021-06-13T13:14:20Z</time>
      </trkpt>
      <trkpt lat="50.75879" lon="2.34124">
        <ele>33.3</ele>
        <time>2021-06-13T13:14:09Z</time>
      </trkpt>
      <trkpt lat="50.75863" lon="2.34106">
        <ele>29.94</ele>
        <time>2021-06-13T13:13:58Z</time>
      </trkpt>
      <trkpt lat="50.75844" lon="2.34084">
        <ele>26.57</ele>
        <time>2021-06-13T13:13:47Z</time>
      </trkpt>
      <trkpt lat="50.75823" lon="2.3406">
        <ele>23.21</ele>
        <time>2021-06-13T13:13:35Z</time>
      </trkpt>
      <trkpt lat="50.758" lon="2.34035">
        <ele>19.84</ele>
        <time>2021-06-13T13:13:24Z</time>
      </trkpt>
      <trkpt lat="50.75759" lon="2.33993">
        <ele>16.48</ele>
        <time>2021-06-13T13:13:09Z</time>
      </trkpt>
      <trkpt lat="50.75756" lon="2.3399">
        <ele>16.48</ele>
        <time>2021-06-13T13:13:08Z</time>
      </trkpt>
      <trkpt lat="50.75754" lon="2.33987">
        <ele>16.48</ele>
        <time>2021-06-13T13:13:07Z</time>
      </trkpt>
      <trkpt lat="50.75752" lon="2.33984">
        <ele>15.52</ele>
        <time>2021-06-13T13:13:06Z</time>
      </trkpt>
      <trkpt lat="50.75751" lon="2.33982">
        <ele>15.52</ele>
        <time>2021-06-13T13:13:05Z</time>
      </trkpt>
      <trkpt lat="50.7575" lon="2.33978">
        <ele>15.52</ele>
        <time>2021-06-13T13:13:04Z</time>
      </trkpt>
      <trkpt lat="50.75763" lon="2.3397">
        <ele>14.08</ele>
        <time>2021-06-13T13:13:00Z</time>
      </trkpt>
      <trkpt lat="50.7584" lon="2.3394">
        <ele>15.52</ele>
        <time>2021-06-13T13:12:46Z</time>
      </trkpt>
      <trkpt lat="50.75869" lon="2.3393">
        <ele>18.4</ele>
        <time>2021-06-13T13:12:40Z</time>
      </trkpt>
      <trkpt lat="50.75872" lon="2.33929">
        <ele>18.4</ele>
        <time>2021-06-13T13:12:39Z</time>
      </trkpt>
      <trkpt lat="50.75874" lon="2.33926">
        <ele>18.4</ele>
        <time>2021-06-13T13:12:38Z</time>
      </trkpt>
      <trkpt lat="50.75877" lon="2.33918">
        <ele>17.92</ele>
        <time>2021-06-13T13:12:34Z</time>
      </trkpt>
      <trkpt lat="50.75874" lon="2.33905">
        <ele>16.48</ele>
        <time>2021-06-13T13:12:30Z</time>
      </trkpt>
      <trkpt lat="50.75878" lon="2.33875">
        <ele>15.04</ele>
        <time>2021-06-13T13:12:22Z</time>
      </trkpt>
      <trkpt lat="50.75884" lon="2.33864">
        <ele>15.04</ele>
        <time>2021-06-13T13:12:19Z</time>
      </trkpt>
      <trkpt lat="50.75908" lon="2.33811">
        <ele>15.04</ele>
        <time>2021-06-13T13:12:08Z</time>
      </trkpt>
      <trkpt lat="50.75918" lon="2.33784">
        <ele>13.6</ele>
        <time>2021-06-13T13:12:03Z</time>
      </trkpt>
      <trkpt lat="50.75929" lon="2.33762">
        <ele>15.04</ele>
        <time>2021-06-13T13:11:59Z</time>
      </trkpt>
      <trkpt lat="50.75935" lon="2.33741">
        <ele>15.04</ele>
        <time>2021-06-13T13:11:55Z</time>
      </trkpt>
      <trkpt lat="50.75936" lon="2.33736">
        <ele>15.04</ele>
        <time>2021-06-13T13:11:54Z</time>
      </trkpt>
      <trkpt lat="50.75947" lon="2.33677">
        <ele>13.6</ele>
        <time>2021-06-13T13:11:41Z</time>
      </trkpt>
      <trkpt lat="50.75958" lon="2.3363">
        <ele>14.08</ele>
        <time>2021-06-13T13:11:28Z</time>
      </trkpt>
      <trkpt lat="50.75964" lon="2.33593">
        <ele>14.08</ele>
        <time>2021-06-13T13:11:17Z</time>
      </trkpt>
      <trkpt lat="50.7597" lon="2.33569">
        <ele>14.08</ele>
        <time>2021-06-13T13:11:12Z</time>
      </trkpt>
      <trkpt lat="50.7598" lon="2.33514">
        <ele>14.08</ele>
        <time>2021-06-13T13:11:03Z</time>
      </trkpt>
      <trkpt lat="50.75981" lon="2.33509">
        <ele>14.08</ele>
        <time>2021-06-13T13:11:02Z</time>
      </trkpt>
      <trkpt lat="50.76001" lon="2.33457">
        <ele>13.12</ele>
        <time>2021-06-13T13:10:51Z</time>
      </trkpt>
      <trkpt lat="50.76017" lon="2.33436">
        <ele>13.12</ele>
        <time>2021-06-13T13:10:43Z</time>
      </trkpt>
      <trkpt lat="50.76019" lon="2.33425">
        <ele>13.12</ele>
        <time>2021-06-13T13:10:39Z</time>
      </trkpt>
      <trkpt lat="50.76007" lon="2.33398">
        <ele>14.08</ele>
        <time>2021-06-13T13:10:33Z</time>
      </trkpt>
      <trkpt lat="50.76004" lon="2.33377">
        <ele>14.08</ele>
        <time>2021-06-13T13:10:29Z</time>
      </trkpt>
      <trkpt lat="50.76007" lon="2.33353">
        <ele>14.08</ele>
        <time>2021-06-13T13:10:24Z</time>
      </trkpt>
      <trkpt lat="50.7601" lon="2.33344">
        <ele>14.08</ele>
        <time>2021-06-13T13:10:22Z</time>
      </trkpt>
      <trkpt lat="50.76015" lon="2.33327">
        <ele>14.08</ele>
        <time>2021-06-13T13:10:18Z</time>
      </trkpt>
      <trkpt lat="50.76031" lon="2.33317">
        <ele>14.08</ele>
        <time>2021-06-13T13:10:13Z</time>
      </trkpt>
      <trkpt lat="50.76058" lon="2.33307">
        <ele>14.08</ele>
        <time>2021-06-13T13:10:02Z</time>
      </trkpt>
      <trkpt lat="50.76059" lon="2.33304">
        <ele>13.12</ele>
        <time>2021-06-13T13:10:01Z</time>
      </trkpt>
      <trkpt lat="50.76059" lon="2.333">
        <ele>13.12</ele>
        <time>2021-06-13T13:10:00Z</time>
      </trkpt>
      <trkpt lat="50.76058" lon="2.33295">
        <ele>11.67</ele>
        <time>2021-06-13T13:09:59Z</time>
      </trkpt>
      <trkpt lat="50.76049" lon="2.33261">
        <ele>9.75</ele>
        <time>2021-06-13T13:09:55Z</time>
      </trkpt>
      <trkpt lat="50.75999" lon="2.33093">
        <ele>9.75</ele>
        <time>2021-06-13T13:09:41Z</time>
      </trkpt>
      <trkpt lat="50.75995" lon="2.33079">
        <ele>9.75</ele>
        <time>2021-06-13T13:09:40Z</time>
      </trkpt>
      <trkpt lat="50.75975" lon="2.33011">
        <ele>13.12</ele>
        <time>2021-06-13T13:09:35Z</time>
      </trkpt>
      <trkpt lat="50.75962" lon="2.32971">
        <ele>15.04</ele>
        <time>2021-06-13T13:09:32Z</time>
      </trkpt>
      <trkpt lat="50.7595" lon="2.32936">
        <ele>17.44</ele>
        <time>2021-06-13T13:09:29Z</time>
      </trkpt>
      <trkpt lat="50.75946" lon="2.32925">
        <ele>19.36</ele>
        <time>2021-06-13T13:09:28Z</time>
      </trkpt>
      <trkpt lat="50.75941" lon="2.32916">
        <ele>19.36</ele>
        <time>2021-06-13T13:09:27Z</time>
      </trkpt>
      <trkpt lat="50.75937" lon="2.32907">
        <ele>20.32</ele>
        <time>2021-06-13T13:09:26Z</time>
      </trkpt>
      <trkpt lat="50.75931" lon="2.32899">
        <ele>19.84</ele>
        <time>2021-06-13T13:09:25Z</time>
      </trkpt>
      <trkpt lat="50.75921" lon="2.32887">
        <ele>20.32</ele>
        <time>2021-06-13T13:09:23Z</time>
      </trkpt>
      <trkpt lat="50.75915" lon="2.32881">
        <ele>21.29</ele>
        <time>2021-06-13T13:09:22Z</time>
      </trkpt>
      <trkpt lat="50.7591" lon="2.32876">
        <ele>21.29</ele>
        <time>2021-06-13T13:09:21Z</time>
      </trkpt>
      <trkpt lat="50.7583" lon="2.32829">
        <ele>23.69</ele>
        <time>2021-06-13T13:09:07Z</time>
      </trkpt>
      <trkpt lat="50.75824" lon="2.32826">
        <ele>24.17</ele>
        <time>2021-06-13T13:09:06Z</time>
      </trkpt>
      <trkpt lat="50.75819" lon="2.32822">
        <ele>24.17</ele>
        <time>2021-06-13T13:09:05Z</time>
      </trkpt>
      <trkpt lat="50.75814" lon="2.32817">
        <ele>24.65</ele>
        <time>2021-06-13T13:09:04Z</time>
      </trkpt>
      <trkpt lat="50.7581" lon="2.32812">
        <ele>25.61</ele>
        <time>2021-06-13T13:09:03Z</time>
      </trkpt>
      <trkpt lat="50.75806" lon="2.32806">
        <ele>25.61</ele>
        <time>2021-06-13T13:09:02Z</time>
      </trkpt>
      <trkpt lat="50.75802" lon="2.32802">
        <ele>25.61</ele>
        <time>2021-06-13T13:09:01Z</time>
      </trkpt>
      <trkpt lat="50.75798" lon="2.32798">
        <ele>25.61</ele>
        <time>2021-06-13T13:09:00Z</time>
      </trkpt>
      <trkpt lat="50.75794" lon="2.32794">
        <ele>26.09</ele>
        <time>2021-06-13T13:08:59Z</time>
      </trkpt>
      <trkpt lat="50.75791" lon="2.3279">
        <ele>26.09</ele>
        <time>2021-06-13T13:08:58Z</time>
      </trkpt>
      <trkpt lat="50.75786" lon="2.32782">
        <ele>26.09</ele>
        <time>2021-06-13T13:08:56Z</time>
      </trkpt>
      <trkpt lat="50.75784" lon="2.32778">
        <ele>26.09</ele>
        <time>2021-06-13T13:08:55Z</time>
      </trkpt>
      <trkpt lat="50.75769" lon="2.32754">
        <ele>26.09</ele>
        <time>2021-06-13T13:08:48Z</time>
      </trkpt>
      <trkpt lat="50.75767" lon="2.3275">
        <ele>26.09</ele>
        <time>2021-06-13T13:08:47Z</time>
      </trkpt>
      <trkpt lat="50.75766" lon="2.32739">
        <ele>26.09</ele>
        <time>2021-06-13T13:08:44Z</time>
      </trkpt>
    </trkseg>
  </trk>
</gpx>